Observation data for Goodnight on 12/08/2019      Previous  Date       Current Mesonet Observations  Soil Data  Daily Summary Page  Observations in Plain Language
KGO1 080600Z 21008KT 08/03 A2996 RMK A01 T00780026  RH  069%=      5-min Rain = 0
KGO1 080601Z 21007KT 08/02 A2996 RMK A01 T00770024  RH  070%=      5-min Rain = 0
KGO1 080602Z 21008KT 08/02 A2996 RMK A01 T00750024  RH  070%=      5-min Rain = 0
KGO1 080603Z 21008KT 08/03 A2996 RMK A01 T00760025  RH  070%=      5-min Rain = 0
KGO1 080604Z 20008KT 08/03 A2995 RMK A01 T00770026  RH  070%=      5-min Rain = 0
KGO1 080605Z 20008KT 08/03 A2995 RMK A01 T00790026  RH  070%=      5-min Rain = 0
KGO1 080606Z 20008KT 08/03 A2995 RMK A01 T00780026  RH  069%=      5-min Rain = 0
KGO1 080607Z 20009KT 08/03 A2995 RMK A01 T00780026  RH  069%=      5-min Rain = 0
KGO1 080608Z 20008KT 08/03 A2995 RMK A01 T00780026  RH  069%=      5-min Rain = 0
KGO1 080609Z 20008KT 08/03 A2995 RMK A01 T00770025  RH  070%=      5-min Rain = 0
KGO1 080610Z 20008KT 08/03 A2995 RMK A01 T00760025  RH  070%=      5-min Rain = 0
KGO1 080611Z 20007KT 08/03 A2995 RMK A01 T00760025  RH  070%=      5-min Rain = 0
KGO1 080612Z 20007KT 08/03 A2995 RMK A01 T00760025  RH  070%=      5-min Rain = 0
KGO1 080613Z 20007KT 08/03 A2995 RMK A01 T00770026  RH  070%=      5-min Rain = 0
KGO1 080614Z 19007KT 08/03 A2995 RMK A01 T00780026  RH  069%=      5-min Rain = 0
KGO1 080615Z 19008KT 08/03 A2995 RMK A01 T00790026  RH  069%=      5-min Rain = 0
KGO1 080616Z 19008KT 08/03 A2995 RMK A01 T00790026  RH  069%=      5-min Rain = 0
KGO1 080617Z 19008KT 08/03 A2995 RMK A01 T00800026  RH  069%=      5-min Rain = 0
KGO1 080618Z 19008KT 08/03 A2995 RMK A01 T00810026  RH  068%=      5-min Rain = 0
KGO1 080619Z 19007KT 08/03 A2995 RMK A01 T00820027  RH  068%=      5-min Rain = 0
KGO1 080620Z 19007KT 08/03 A2995 RMK A01 T00810026  RH  068%=      5-min Rain = 0
KGO1 080621Z 19007KT 08/03 A2995 RMK A01 T00810026  RH  068%=      5-min Rain = 0
KGO1 080622Z 19006KT 08/03 A2995 RMK A01 T00810026  RH  068%=      5-min Rain = 0
KGO1 080623Z 18006KT 08/03 A2995 RMK A01 T00810026  RH  068%=      5-min Rain = 0
KGO1 080624Z 19007KT 08/03 A2994 RMK A01 T00810025  RH  068%=      5-min Rain = 0
KGO1 080625Z 19008KT 08/03 A2994 RMK A01 T00800025  RH  068%=      5-min Rain = 0
KGO1 080626Z 19009KT 08/03 A2994 RMK A01 T00800025  RH  068%=      5-min Rain = 0
KGO1 080627Z 19010KT 08/03 A2994 RMK A01 T00810026  RH  068%=      5-min Rain = 0
KGO1 080628Z 19011KT 08/03 A2994 RMK A01 T00840027  RH  068%=      5-min Rain = 0
KGO1 080629Z 19010KT 09/03 A2994 RMK A01 T00860028  RH  067%=      5-min Rain = 0
KGO1 080630Z 19011KT 09/03 A2994 RMK A01 T00860027  RH  067%=      5-min Rain = 0
KGO1 080631Z 19011KT 09/03 A2994 RMK A01 T00850027  RH  067%=      5-min Rain = 0
KGO1 080632Z 19010KT 09/03 A2994 RMK A01 T00850027  RH  067%=      5-min Rain = 0
KGO1 080633Z 19010KT 08/03 A2994 RMK A01 T00840027  RH  067%=      5-min Rain = 0
KGO1 080634Z 19008KT 09/03 A2994 RMK A01 T00850027  RH  067%=      5-min Rain = 0
KGO1 080635Z 18008KT 09/03 A2994 RMK A01 T00870027  RH  066%=      5-min Rain = 0
KGO1 080636Z 18008KT 09/03 A2994 RMK A01 T00870026  RH  066%=      5-min Rain = 0
KGO1 080637Z 18007KT 09/03 A2994 RMK A01 T00870027  RH  066%=      5-min Rain = 0
KGO1 080638Z 19006KT 09/03 A2994 RMK A01 T00880026  RH  065%=      5-min Rain = 0
KGO1 080639Z 18006KT 09/03 A2993 RMK A01 T00860025  RH  066%=      5-min Rain = 0
KGO1 080640Z 19005KT 09/03 A2993 RMK A01 T00850025  RH  066%=      5-min Rain = 0
KGO1 080641Z 19006KT 08/02 A2993 RMK A01 T00840024  RH  066%=      5-min Rain = 0
KGO1 080642Z 20006KT 08/03 A2993 RMK A01 T00840025  RH  066%=      5-min Rain = 0
KGO1 080643Z 20006KT 08/02 A2993 RMK A01 T00830024  RH  067%=      5-min Rain = 0
KGO1 080644Z 20006KT 08/02 A2993 RMK A01 T00830024  RH  067%=      5-min Rain = 0
KGO1 080645Z 21006KT 08/03 A2993 RMK A01 T00840025  RH  066%=      5-min Rain = 0
KGO1 080646Z 20007KT 08/02 A2993 RMK A01 T00830024  RH  066%=      5-min Rain = 0
KGO1 080647Z 21008KT 08/02 A2992 RMK A01 T00830024  RH  067%=      5-min Rain = 0
KGO1 080648Z 21007KT 08/02 A2992 RMK A01 T00820024  RH  067%=      5-min Rain = 0
KGO1 080649Z 21008KT 08/03 A2992 RMK A01 T00830025  RH  067%=      5-min Rain = 0
KGO1 080650Z 22009KT 08/02 A2992 RMK A01 T00810024  RH  067%=      5-min Rain = 0
KGO1 080651Z 21009KT 08/03 A2992 RMK A01 T00830025  RH  067%=      5-min Rain = 0
KGO1 080652Z 21009KT 08/03 A2992 RMK A01 T00830025  RH  067%=      5-min Rain = 0
KGO1 080653Z 22010KT 08/02 A2992 RMK A01 T00780022  RH  068%=      5-min Rain = 0
KGO1 080654Z 22011KT 08/02 A2992 RMK A01 T00770023  RH  069%=      5-min Rain = 0
KGO1 080655Z 23010KT 08/03 A2992 RMK A01 T00790025  RH  068%=      5-min Rain = 0
KGO1 080656Z 22010KT 08/02 A2992 RMK A01 T00800024  RH  068%=      5-min Rain = 0
KGO1 080657Z 22011KT 08/02 A2992 RMK A01 T00800024  RH  067%=      5-min Rain = 0
KGO1 080658Z 23012KT 08/02 A2992 RMK A01 T00790023  RH  068%=      5-min Rain = 0
KGO1 080659Z 23012KT 08/02 A2992 RMK A01 T00790024  RH  068%=      5-min Rain = 0
KGO1 080700Z 23013KT 08/02 A2992 RMK A01 T00800024  RH  068%=      5-min Rain = 0
KGO1 080701Z 23014KT 08/02 A2992 RMK A01 T00800023  RH  067%=      5-min Rain = 0
KGO1 080702Z 23013KT 08/02 A2992 RMK A01 T00820024  RH  067%=      5-min Rain = 0
KGO1 080703Z 23011KT 08/02 A2992 RMK A01 T00840024  RH  066%=      5-min Rain = 0
KGO1 080704Z 23011KT 08/02 A2992 RMK A01 T00840024  RH  066%=      5-min Rain = 0
KGO1 080705Z 22011KT 08/02 A2992 RMK A01 T00820023  RH  066%=      5-min Rain = 0
KGO1 080706Z 22009KT 08/02 A2992 RMK A01 T00810023  RH  067%=      5-min Rain = 0
KGO1 080707Z 22009KT 08/02 A2992 RMK A01 T00810023  RH  067%=      5-min Rain = 0
KGO1 080708Z 23009KT 08/02 A2992 RMK A01 T00800023  RH  067%=      5-min Rain = 0
KGO1 080709Z 23008KT 08/02 A2992 RMK A01 T00790023  RH  067%=      5-min Rain = 0
KGO1 080710Z 23007KT 08/02 A2992 RMK A01 T00790022  RH  068%=      5-min Rain = 0
KGO1 080711Z 23008KT 08/02 A2992 RMK A01 T00770022  RH  068%=      5-min Rain = 0
KGO1 080712Z 23006KT 08/02 A2992 RMK A01 T00760022  RH  068%=      5-min Rain = 0
KGO1 080713Z 22006KT 08/02 A2992 RMK A01 T00760022  RH  069%=      5-min Rain = 0
KGO1 080714Z 22007KT 08/02 A2992 RMK A01 T00750021  RH  069%=      5-min Rain = 0
KGO1 080715Z 22006KT 08/02 A2992 RMK A01 T00750021  RH  069%=      5-min Rain = 0
KGO1 080716Z 21006KT 08/02 A2992 RMK A01 T00750021  RH  069%=      5-min Rain = 0
KGO1 080717Z 21006KT 07/02 A2992 RMK A01 T00740020  RH  069%=      5-min Rain = 0
KGO1 080718Z 21006KT 07/02 A2992 RMK A01 T00730020  RH  069%=      5-min Rain = 0
KGO1 080719Z 20006KT 07/02 A2992 RMK A01 T00720020  RH  069%=      5-min Rain = 0
KGO1 080720Z 20005KT 07/02 A2992 RMK A01 T00720020  RH  070%=      5-min Rain = 0
KGO1 080721Z 20006KT 07/02 A2992 RMK A01 T00730020  RH  069%=      5-min Rain = 0
KGO1 080722Z 20005KT 07/02 A2992 RMK A01 T00710019  RH  069%=      5-min Rain = 0
KGO1 080723Z 20005KT 07/02 A2992 RMK A01 T00710019  RH  070%=      5-min Rain = 0
KGO1 080724Z 22005KT 07/02 A2992 RMK A01 T00710019  RH  070%=      5-min Rain = 0
KGO1 080725Z 21006KT 07/02 A2992 RMK A01 T00700019  RH  070%=      5-min Rain = 0
KGO1 080726Z 21006KT 07/02 A2992 RMK A01 T00710020  RH  070%=      5-min Rain = 0
KGO1 080727Z 21007KT 07/02 A2992 RMK A01 T00740021  RH  069%=      5-min Rain = 0
KGO1 080728Z 21007KT 07/02 A2992 RMK A01 T00730020  RH  069%=      5-min Rain = 0
KGO1 080729Z 21008KT 07/02 A2992 RMK A01 T00720020  RH  069%=      5-min Rain = 0
KGO1 080730Z 21007KT 07/02 A2992 RMK A01 T00710019  RH  069%=      5-min Rain = 0
KGO1 080731Z 21008KT 07/02 A2992 RMK A01 T00690019  RH  070%=      5-min Rain = 0
KGO1 080732Z 21007KT 07/02 A2992 RMK A01 T00690019  RH  071%=      5-min Rain = 0
KGO1 080733Z 22008KT 07/02 A2992 RMK A01 T00680019  RH  071%=      5-min Rain = 0
KGO1 080734Z 22008KT 07/02 A2992 RMK A01 T00670018  RH  071%=      5-min Rain = 0
KGO1 080735Z 22007KT 07/02 A2992 RMK A01 T00660018  RH  071%=      5-min Rain = 0
KGO1 080736Z 22007KT 07/02 A2992 RMK A01 T00660019  RH  072%=      5-min Rain = 0
KGO1 080737Z 22006KT 07/02 A2992 RMK A01 T00650018  RH  072%=      5-min Rain = 0
KGO1 080738Z 22006KT 07/02 A2992 RMK A01 T00650018  RH  072%=      5-min Rain = 0
KGO1 080739Z 22006KT 07/02 A2991 RMK A01 T00650018  RH  072%=      5-min Rain = 0
KGO1 080740Z 21006KT 07/02 A2991 RMK A01 T00650018  RH  072%=      5-min Rain = 0
KGO1 080741Z 21005KT 07/02 A2991 RMK A01 T00650018  RH  072%=      5-min Rain = 0
KGO1 080742Z 21004KT 07/02 A2991 RMK A01 T00650018  RH  072%=      5-min Rain = 0
KGO1 080743Z 21005KT 07/02 A2991 RMK A01 T00650018  RH  072%=      5-min Rain = 0
KGO1 080744Z 21004KT 07/02 A2991 RMK A01 T00650018  RH  072%=      5-min Rain = 0
KGO1 080745Z 21003KT 07/02 A2991 RMK A01 T00650018  RH  072%=      5-min Rain = 0
KGO1 080746Z 22004KT 07/02 A2991 RMK A01 T00650018  RH  072%=      5-min Rain = 0
KGO1 080747Z 21004KT 07/02 A2991 RMK A01 T00660018  RH  071%=      5-min Rain = 0
KGO1 080748Z 21004KT 07/02 A2991 RMK A01 T00670018  RH  071%=      5-min Rain = 0
KGO1 080749Z 22005KT 07/02 A2991 RMK A01 T00680018  RH  070%=      5-min Rain = 0
KGO1 080750Z 22005KT 07/02 A2991 RMK A01 T00680018  RH  071%=      5-min Rain = 0
KGO1 080751Z 22004KT 07/02 A2991 RMK A01 T00680019  RH  070%=      5-min Rain = 0
KGO1 080752Z 23005KT 07/02 A2991 RMK A01 T00680018  RH  070%=      5-min Rain = 0
KGO1 080753Z 22005KT 07/02 A2991 RMK A01 T00680018  RH  071%=      5-min Rain = 0
KGO1 080754Z 22005KT 07/02 A2991 RMK A01 T00660017  RH  071%=      5-min Rain = 0
KGO1 080755Z 23005KT 06/02 A2991 RMK A01 T00640017  RH  072%=      5-min Rain = 0
KGO1 080756Z 22005KT 06/02 A2991 RMK A01 T00640017  RH  072%=      5-min Rain = 0
KGO1 080757Z 22005KT 06/02 A2991 RMK A01 T00640018  RH  072%=      5-min Rain = 0
KGO1 080758Z 22005KT 06/02 A2991 RMK A01 T00630017  RH  072%=      5-min Rain = 0
KGO1 080759Z 23005KT 06/02 A2991 RMK A01 T00620016  RH  073%=      5-min Rain = 0
KGO1 080800Z 24005KT 06/02 A2991 RMK A01 T00620017  RH  073%=      5-min Rain = 0
KGO1 080801Z 24004KT 06/02 A2991 RMK A01 T00610017  RH  073%=      5-min Rain = 0
KGO1 080802Z 24004KT 06/02 A299 RMK A01 T00610017  RH  073%=      5-min Rain = 0
KGO1 080803Z 24004KT 06/02 A299 RMK A01 T00610016  RH  073%=      5-min Rain = 0
KGO1 080804Z 25004KT 06/02 A299 RMK A01 T00600016  RH  073%=      5-min Rain = 0
KGO1 080805Z 25004KT 06/02 A299 RMK A01 T00600016  RH  073%=      5-min Rain = 0
KGO1 080806Z 25004KT 06/02 A299 RMK A01 T00600016  RH  073%=      5-min Rain = 0
KGO1 080807Z 25005KT 06/02 A299 RMK A01 T00600016  RH  074%=      5-min Rain = 0
KGO1 080808Z 25004KT 06/02 A299 RMK A01 T00600017  RH  074%=      5-min Rain = 0
KGO1 080809Z 25005KT 06/02 A299 RMK A01 T00600017  RH  074%=      5-min Rain = 0
KGO1 080810Z 25005KT 06/02 A299 RMK A01 T00600017  RH  074%=      5-min Rain = 0
KGO1 080811Z 25005KT 06/02 A299 RMK A01 T00610017  RH  074%=      5-min Rain = 0
KGO1 080812Z 25006KT 06/02 A299 RMK A01 T00620017  RH  073%=      5-min Rain = 0
KGO1 080813Z 25007KT 06/02 A299 RMK A01 T00630018  RH  073%=      5-min Rain = 0
KGO1 080814Z 26008KT 06/02 A299 RMK A01 T00640018  RH  072%=      5-min Rain = 0
KGO1 080815Z 26009KT 07/02 A299 RMK A01 T00660019  RH  072%=      5-min Rain = 0
KGO1 080816Z 26009KT 07/02 A299 RMK A01 T00680019  RH  071%=      5-min Rain = 0
KGO1 080817Z 26009KT 07/02 A299 RMK A01 T00700020  RH  070%=      5-min Rain = 0
KGO1 080818Z 26011KT 07/02 A299 RMK A01 T00710020  RH  070%=      5-min Rain = 0
KGO1 080819Z 25011KT 07/02 A299 RMK A01 T00720020  RH  069%=      5-min Rain = 0
KGO1 080820Z 25012KT 07/02 A299 RMK A01 T00730020  RH  069%=      5-min Rain = 0
KGO1 080821Z 26013KT 07/02 A299 RMK A01 T00740020  RH  068%=      5-min Rain = 0
KGO1 080822Z 26012KT 08/02 A299 RMK A01 T00760019  RH  068%=      5-min Rain = 0
KGO1 080823Z 26013KT 08/02 A299 RMK A01 T00770019  RH  067%=      5-min Rain = 0
KGO1 080824Z 26013KT 08/02 A299 RMK A01 T00780019  RH  066%=      5-min Rain = 0
KGO1 080825Z 26013KT 08/02 A299 RMK A01 T00790019  RH  066%=      5-min Rain = 0
KGO1 080826Z 26013KT 08/02 A299 RMK A01 T00790019  RH  066%=      5-min Rain = 0
KGO1 080827Z 26014KT 08/02 A299 RMK A01 T00790019  RH  065%=      5-min Rain = 0
KGO1 080828Z 26014KT 08/02 A299 RMK A01 T00790019  RH  065%=      5-min Rain = 0
KGO1 080829Z 26015KT 08/02 A299 RMK A01 T00790018  RH  065%=      5-min Rain = 0
KGO1 080830Z 26015KT 08/02 A299 RMK A01 T00800018  RH  065%=      5-min Rain = 0
KGO1 080831Z 26015KT 08/02 A299 RMK A01 T00810018  RH  065%=      5-min Rain = 0
KGO1 080832Z 26016KT 08/02 A299 RMK A01 T00810018  RH  065%=      5-min Rain = 0
KGO1 080833Z 26015KT 08/02 A299 RMK A01 T00810018  RH  064%=      5-min Rain = 0
KGO1 080834Z 26016KT 08/02 A299 RMK A01 T00820018  RH  064%=      5-min Rain = 0
KGO1 080835Z 27016KT 08/02 A299 RMK A01 T00810017  RH  064%=      5-min Rain = 0
KGO1 080836Z 26016KT 08/02 A299 RMK A01 T00820017  RH  064%=      5-min Rain = 0
KGO1 080837Z 26016KT 08/02 A299 RMK A01 T00830017  RH  063%=      5-min Rain = 0
KGO1 080838Z 27016KT 08/02 A299 RMK A01 T00840017  RH  063%=      5-min Rain = 0
KGO1 080839Z 27017KT 08/02 A299 RMK A01 T00840017  RH  063%=      5-min Rain = 0
KGO1 080840Z 27017KT 08/02 A299 RMK A01 T00840017  RH  063%=      5-min Rain = 0
KGO1 080841Z 27016KT 08/02 A299 RMK A01 T00840016  RH  062%=      5-min Rain = 0
KGO1 080842Z 27016KT 08/02 A299 RMK A01 T00840017  RH  063%=      5-min Rain = 0
KGO1 080843Z 27015KT 08/02 A299 RMK A01 T00840017  RH  063%=      5-min Rain = 0
KGO1 080844Z 27016KT 08/02 A299 RMK A01 T00840016  RH  063%=      5-min Rain = 0
KGO1 080845Z 26017KT 08/02 A299 RMK A01 T00840016  RH  062%=      5-min Rain = 0
KGO1 080846Z 27016KT 09/02 A299 RMK A01 T00860016  RH  061%=      5-min Rain = 0
KGO1 080847Z 27016KT 09/02 A299 RMK A01 T00880016  RH  060%=      5-min Rain = 0
KGO1 080848Z 26017KT 09/02 A299 RMK A01 T00890015  RH  060%=      5-min Rain = 0
KGO1 080849Z 26018KT 09/02 A299 RMK A01 T00890015  RH  060%=      5-min Rain = 0
KGO1 080850Z 26018KT 09/02 A299 RMK A01 T00890015  RH  060%=      5-min Rain = 0
KGO1 080851Z 27018KT 09/02 A299 RMK A01 T00890015  RH  060%=      5-min Rain = 0
KGO1 080852Z 27018KT 09/02 A299 RMK A01 T00890015  RH  060%=      5-min Rain = 0
KGO1 080853Z 27016KT 09/02 A299 RMK A01 T00880015  RH  060%=      5-min Rain = 0
KGO1 080854Z 27017KT 09/02 A299 RMK A01 T00880015  RH  060%=      5-min Rain = 0
KGO1 080855Z 27015KT 09/01 A299 RMK A01 T00880014  RH  060%=      5-min Rain = 0
KGO1 080856Z 27016KT 09/01 A299 RMK A01 T00880014  RH  060%=      5-min Rain = 0
KGO1 080857Z 27016KT 09/01 A299 RMK A01 T00880014  RH  060%=      5-min Rain = 0
KGO1 080858Z 26016KT 09/01 A2989 RMK A01 T00900014  RH  059%=      5-min Rain = 0
KGO1 080859Z 27016KT 09/01 A2989 RMK A01 T00900014  RH  059%=      5-min Rain = 0
KGO1 080900Z 27017KT 09/01 A2989 RMK A01 T00900014  RH  059%=      5-min Rain = 0
KGO1 080901Z 26018KT 09/01 A2989 RMK A01 T00900014  RH  059%=      5-min Rain = 0
KGO1 080902Z 26017KT 09/01 A2989 RMK A01 T00910014  RH  059%=      5-min Rain = 0
KGO1 080903Z 27017KT 09/01 A299 RMK A01 T00900014  RH  059%=      5-min Rain = 0
KGO1 080904Z 27017KT 09/01 A299 RMK A01 T00900014  RH  059%=      5-min Rain = 0
KGO1 080905Z 27018KT 09/01 A2989 RMK A01 T00900013  RH  058%=      5-min Rain = 0
KGO1 080906Z 26018KT 09/01 A2989 RMK A01 T00920013  RH  058%=      5-min Rain = 0
KGO1 080907Z 27018KT 09/01 A2989 RMK A01 T00930013  RH  057%=      5-min Rain = 0
KGO1 080908Z 27019KT 09/01 A2989 RMK A01 T00940013  RH  057%=      5-min Rain = 0
KGO1 080909Z 27018KT 10/01 A2989 RMK A01 T00960013  RH  056%=      5-min Rain = 0
KGO1 080910Z 27017KT 10/01 A2989 RMK A01 T00970013  RH  056%=      5-min Rain = 0
KGO1 080911Z 27016KT 10/01 A299 RMK A01 T00980013  RH  055%=      5-min Rain = 0
KGO1 080912Z 27016KT 10/01 A2989 RMK A01 T00980013  RH  055%=      5-min Rain = 0
KGO1 080913Z 27015KT 10/01 A2989 RMK A01 T00980013  RH  055%=      5-min Rain = 0
KGO1 080914Z 27015KT 10/01 A2989 RMK A01 T00980013  RH  056%=      5-min Rain = 0
KGO1 080915Z 27015KT 10/01 A2989 RMK A01 T00980013  RH  056%=      5-min Rain = 0
KGO1 080916Z 27017KT 10/01 A2989 RMK A01 T00980013  RH  055%=      5-min Rain = 0
KGO1 080917Z 27016KT 10/01 A2989 RMK A01 T01000013  RH  055%=      5-min Rain = 0
KGO1 080918Z 27018KT 10/01 A2989 RMK A01 T01010013  RH  054%=      5-min Rain = 0
KGO1 080919Z 27016KT 10/01 A2989 RMK A01 T01030013  RH  054%=      5-min Rain = 0
KGO1 080920Z 27016KT 10/01 A2989 RMK A01 T01040013  RH  053%=      5-min Rain = 0
KGO1 080921Z 27016KT 11/01 A2989 RMK A01 T01050013  RH  053%=      5-min Rain = 0
KGO1 080922Z 28015KT 11/01 A2988 RMK A01 T01070013  RH  052%=      5-min Rain = 0
KGO1 080923Z 28016KT 11/01 A2988 RMK A01 T01070013  RH  052%=      5-min Rain = 0
KGO1 080924Z 28016KT 11/01 A2988 RMK A01 T01090012  RH  051%=      5-min Rain = 0
KGO1 080925Z 27017KT 11/01 A2988 RMK A01 T01100012  RH  051%=      5-min Rain = 0
KGO1 080926Z 28018KT 11/01 A2988 RMK A01 T01110012  RH  051%=      5-min Rain = 0
KGO1 080927Z 27018KT 11/01 A2988 RMK A01 T01120012  RH  050%=      5-min Rain = 0
KGO1 080928Z 27017KT 11/01 A2988 RMK A01 T01120012  RH  050%=      5-min Rain = 0
KGO1 080929Z 27016KT 11/01 A2988 RMK A01 T01110012  RH  050%=      5-min Rain = 0
KGO1 080930Z 28017KT 11/01 A2988 RMK A01 T01100012  RH  051%=      5-min Rain = 0
KGO1 080931Z 28016KT 11/01 A2988 RMK A01 T01090012  RH  051%=      5-min Rain = 0
KGO1 080932Z 27017KT 11/01 A2988 RMK A01 T01070012  RH  052%=      5-min Rain = 0
KGO1 080933Z 28016KT 11/01 A2988 RMK A01 T01070012  RH  052%=      5-min Rain = 0
KGO1 080934Z 28016KT 11/01 A2988 RMK A01 T01060012  RH  052%=      5-min Rain = 0
KGO1 080935Z 28016KT 10/01 A2988 RMK A01 T01040012  RH  053%=      5-min Rain = 0
KGO1 080936Z 28015KT 10/01 A2988 RMK A01 T01040013  RH  053%=      5-min Rain = 0
KGO1 080937Z 28015KT 10/01 A2988 RMK A01 T01030012  RH  053%=      5-min Rain = 0
KGO1 080938Z 28013KT 10/01 A2988 RMK A01 T01030013  RH  054%=      5-min Rain = 0
KGO1 080939Z 28013KT 10/01 A2988 RMK A01 T01030014  RH  054%=      5-min Rain = 0
KGO1 080940Z 28014KT 10/01 A2988 RMK A01 T01020013  RH  054%=      5-min Rain = 0
KGO1 080941Z 28013KT 10/01 A2988 RMK A01 T01030013  RH  054%=      5-min Rain = 0
KGO1 080942Z 28015KT 10/01 A2988 RMK A01 T01040013  RH  053%=      5-min Rain = 0
KGO1 080943Z 27014KT 11/01 A2988 RMK A01 T01050013  RH  053%=      5-min Rain = 0
KGO1 080944Z 27014KT 11/01 A2988 RMK A01 T01060013  RH  052%=      5-min Rain = 0
KGO1 080945Z 27014KT 11/01 A2988 RMK A01 T01070013  RH  052%=      5-min Rain = 0
KGO1 080946Z 27015KT 11/01 A2988 RMK A01 T01070013  RH  052%=      5-min Rain = 0
KGO1 080947Z 27015KT 11/01 A2988 RMK A01 T01080013  RH  052%=      5-min Rain = 0
KGO1 080948Z 27016KT 11/01 A2988 RMK A01 T01090013  RH  052%=      5-min Rain = 0
KGO1 080949Z 27015KT 11/01 A2988 RMK A01 T01090013  RH  052%=      5-min Rain = 0
KGO1 080950Z 27015KT 11/01 A2988 RMK A01 T01080013  RH  052%=      5-min Rain = 0
KGO1 080951Z 27014KT 11/01 A2988 RMK A01 T01080013  RH  052%=      5-min Rain = 0
KGO1 080952Z 27015KT 11/01 A2988 RMK A01 T01070013  RH  052%=      5-min Rain = 0
KGO1 080953Z 27015KT 11/01 A2988 RMK A01 T01070013  RH  052%=      5-min Rain = 0
KGO1 080954Z 27014KT 11/01 A2988 RMK A01 T01070013  RH  052%=      5-min Rain = 0
KGO1 080955Z 27013KT 11/01 A2988 RMK A01 T01060013  RH  053%=      5-min Rain = 0
KGO1 080956Z 27013KT 11/01 A2987 RMK A01 T01060013  RH  053%=      5-min Rain = 0
KGO1 080957Z 27012KT 11/01 A2987 RMK A01 T01050014  RH  053%=      5-min Rain = 0
KGO1 080958Z 27013KT 11/01 A2987 RMK A01 T01050013  RH  053%=      5-min Rain = 0
KGO1 080959Z 27012KT 11/01 A2987 RMK A01 T01060013  RH  053%=      5-min Rain = 0
KGO1 081000Z 27013KT 11/01 A2987 RMK A01 T01060013  RH  053%=      5-min Rain = 0
KGO1 081001Z 27013KT 11/01 A2987 RMK A01 T01070013  RH  052%=      5-min Rain = 0
KGO1 081002Z 27013KT 11/01 A2987 RMK A01 T01070014  RH  052%=      5-min Rain = 0
KGO1 081003Z 28013KT 11/01 A2987 RMK A01 T01070014  RH  052%=      5-min Rain = 0
KGO1 081004Z 28012KT 11/01 A2987 RMK A01 T01080014  RH  052%=      5-min Rain = 0
KGO1 081005Z 28011KT 11/01 A2987 RMK A01 T01070014  RH  052%=      5-min Rain = 0
KGO1 081006Z 28012KT 11/01 A2986 RMK A01 T01070014  RH  053%=      5-min Rain = 0
KGO1 081007Z 28012KT 11/01 A2986 RMK A01 T01070014  RH  053%=      5-min Rain = 0
KGO1 081008Z 28012KT 11/01 A2986 RMK A01 T01060014  RH  053%=      5-min Rain = 0
KGO1 081009Z 28012KT 11/01 A2987 RMK A01 T01050014  RH  053%=      5-min Rain = 0
KGO1 081010Z 28013KT 11/01 A2987 RMK A01 T01050014  RH  053%=      5-min Rain = 0
KGO1 081011Z 28012KT 10/01 A2987 RMK A01 T01040014  RH  054%=      5-min Rain = 0
KGO1 081012Z 28012KT 10/01 A2987 RMK A01 T01030014  RH  054%=      5-min Rain = 0
KGO1 081013Z 28013KT 10/01 A2987 RMK A01 T01030014  RH  054%=      5-min Rain = 0
KGO1 081014Z 28013KT 10/02 A2987 RMK A01 T01020015  RH  055%=      5-min Rain = 0
KGO1 081015Z 28014KT 10/02 A2987 RMK A01 T01020015  RH  055%=      5-min Rain = 0
KGO1 081016Z 28014KT 10/02 A2987 RMK A01 T01020015  RH  055%=      5-min Rain = 0
KGO1 081017Z 28014KT 10/01 A2987 RMK A01 T01020014  RH  054%=      5-min Rain = 0
KGO1 081018Z 28013KT 10/02 A2987 RMK A01 T01020015  RH  054%=      5-min Rain = 0
KGO1 081019Z 28013KT 10/02 A2987 RMK A01 T01020015  RH  054%=      5-min Rain = 0
KGO1 081020Z 28013KT 10/02 A2987 RMK A01 T01020015  RH  055%=      5-min Rain = 0
KGO1 081021Z 28013KT 10/02 A2987 RMK A01 T01030015  RH  054%=      5-min Rain = 0
KGO1 081022Z 27013KT 10/02 A2987 RMK A01 T01030015  RH  054%=      5-min Rain = 0
KGO1 081023Z 27011KT 10/02 A2987 RMK A01 T01030015  RH  055%=      5-min Rain = 0
KGO1 081024Z 27012KT 10/02 A2987 RMK A01 T01030016  RH  055%=      5-min Rain = 0
KGO1 081025Z 27012KT 10/02 A2987 RMK A01 T01030015  RH  054%=      5-min Rain = 0
KGO1 081026Z 27012KT 10/02 A2987 RMK A01 T01030015  RH  054%=      5-min Rain = 0
KGO1 081027Z 27011KT 10/02 A2987 RMK A01 T01030016  RH  054%=      5-min Rain = 0
KGO1 081028Z 27011KT 10/02 A2987 RMK A01 T01030015  RH  055%=      5-min Rain = 0
KGO1 081029Z 27011KT 10/02 A2987 RMK A01 T01020015  RH  055%=      5-min Rain = 0
KGO1 081030Z 27011KT 10/02 A2987 RMK A01 T01020016  RH  055%=      5-min Rain = 0
KGO1 081031Z 27012KT 10/02 A2987 RMK A01 T01020016  RH  055%=      5-min Rain = 0
KGO1 081032Z 28012KT 10/02 A2986 RMK A01 T01020015  RH  055%=      5-min Rain = 0
KGO1 081033Z 28010KT 10/02 A2986 RMK A01 T01030015  RH  054%=      5-min Rain = 0
KGO1 081034Z 28010KT 10/02 A2986 RMK A01 T01040015  RH  054%=      5-min Rain = 0
KGO1 081035Z 28010KT 10/02 A2986 RMK A01 T01040015  RH  054%=      5-min Rain = 0
KGO1 081036Z 27011KT 10/02 A2986 RMK A01 T01040015  RH  054%=      5-min Rain = 0
KGO1 081037Z 27011KT 11/02 A2986 RMK A01 T01050015  RH  054%=      5-min Rain = 0
KGO1 081038Z 27012KT 11/02 A2986 RMK A01 T01050015  RH  054%=      5-min Rain = 0
KGO1 081039Z 27012KT 11/02 A2986 RMK A01 T01050015  RH  054%=      5-min Rain = 0
KGO1 081040Z 27012KT 11/02 A2986 RMK A01 T01050015  RH  054%=      5-min Rain = 0
KGO1 081041Z 27013KT 10/02 A2986 RMK A01 T01040015  RH  054%=      5-min Rain = 0
KGO1 081042Z 27012KT 10/02 A2986 RMK A01 T01040016  RH  054%=      5-min Rain = 0
KGO1 081043Z 27012KT 10/02 A2986 RMK A01 T01020016  RH  055%=      5-min Rain = 0
KGO1 081044Z 27012KT 10/02 A2986 RMK A01 T01020015  RH  055%=      5-min Rain = 0
KGO1 081045Z 27012KT 10/02 A2986 RMK A01 T01020015  RH  055%=      5-min Rain = 0
KGO1 081046Z 27012KT 10/02 A2986 RMK A01 T01020016  RH  055%=      5-min Rain = 0
KGO1 081047Z 27012KT 10/02 A2986 RMK A01 T01020016  RH  055%=      5-min Rain = 0
KGO1 081048Z 27013KT 10/02 A2985 RMK A01 T01020015  RH  055%=      5-min Rain = 0
KGO1 081049Z 27013KT 10/02 A2985 RMK A01 T01040016  RH  054%=      5-min Rain = 0
KGO1 081050Z 27012KT 10/02 A2985 RMK A01 T01040015  RH  054%=      5-min Rain = 0
KGO1 081051Z 27013KT 10/02 A2985 RMK A01 T01040015  RH  054%=      5-min Rain = 0
KGO1 081052Z 26013KT 11/02 A2985 RMK A01 T01050015  RH  054%=      5-min Rain = 0
KGO1 081053Z 26013KT 11/02 A2985 RMK A01 T01050016  RH  054%=      5-min Rain = 0
KGO1 081054Z 26013KT 10/02 A2985 RMK A01 T01040016  RH  054%=      5-min Rain = 0
KGO1 081055Z 27013KT 10/02 A2985 RMK A01 T01030016  RH  055%=      5-min Rain = 0
KGO1 081056Z 27013KT 10/02 A2985 RMK A01 T01030016  RH  055%=      5-min Rain = 0
KGO1 081057Z 27013KT 10/02 A2985 RMK A01 T01020016  RH  055%=      5-min Rain = 0
KGO1 081058Z 27012KT 10/02 A2985 RMK A01 T01020016  RH  055%=      5-min Rain = 0
KGO1 081059Z 27013KT 10/02 A2985 RMK A01 T01020016  RH  055%=      5-min Rain = 0
KGO1 081100Z 27013KT 10/02 A2985 RMK A01 T01020016  RH  055%=      5-min Rain = 0
KGO1 081101Z 27012KT 10/02 A2985 RMK A01 T01030016  RH  055%=      5-min Rain = 0
KGO1 081102Z 27012KT 10/02 A2985 RMK A01 T01030016  RH  055%=      5-min Rain = 0
KGO1 081103Z 27012KT 10/02 A2985 RMK A01 T01030016  RH  055%=      5-min Rain = 0
KGO1 081104Z 27012KT 10/02 A2985 RMK A01 T01030016  RH  055%=      5-min Rain = 0
KGO1 081105Z 27013KT 10/02 A2985 RMK A01 T01030016  RH  055%=      5-min Rain = 0
KGO1 081106Z 28012KT 10/02 A2985 RMK A01 T01040016  RH  054%=      5-min Rain = 0
KGO1 081107Z 28012KT 11/02 A2985 RMK A01 T01060016  RH  054%=      5-min Rain = 0
KGO1 081108Z 28012KT 11/02 A2985 RMK A01 T01060016  RH  054%=      5-min Rain = 0
KGO1 081109Z 27012KT 11/02 A2985 RMK A01 T01060016  RH  054%=      5-min Rain = 0
KGO1 081110Z 27013KT 11/02 A2985 RMK A01 T01070016  RH  053%=      5-min Rain = 0
KGO1 081111Z 27013KT 11/02 A2985 RMK A01 T01080016  RH  053%=      5-min Rain = 0
KGO1 081112Z 27013KT 11/02 A2985 RMK A01 T01070016  RH  053%=      5-min Rain = 0
KGO1 081113Z 28013KT 11/02 A2985 RMK A01 T01070016  RH  053%=      5-min Rain = 0
KGO1 081114Z 27013KT 11/02 A2985 RMK A01 T01080016  RH  053%=      5-min Rain = 0
KGO1 081115Z 28013KT 11/02 A2985 RMK A01 T01080016  RH  053%=      5-min Rain = 0
KGO1 081116Z 28014KT 11/02 A2985 RMK A01 T01080016  RH  053%=      5-min Rain = 0
KGO1 081117Z 28013KT 11/02 A2985 RMK A01 T01080016  RH  053%=      5-min Rain = 0
KGO1 081118Z 28014KT 11/02 A2985 RMK A01 T01080016  RH  053%=      5-min Rain = 0
KGO1 081119Z 28013KT 11/02 A2985 RMK A01 T01090016  RH  053%=      5-min Rain = 0
KGO1 081120Z 28013KT 11/02 A2985 RMK A01 T01090016  RH  053%=      5-min Rain = 0
KGO1 081121Z 28013KT 11/02 A2985 RMK A01 T01090016  RH  053%=      5-min Rain = 0
KGO1 081122Z 29013KT 11/02 A2985 RMK A01 T01090016  RH  053%=      5-min Rain = 0
KGO1 081123Z 29013KT 11/02 A2985 RMK A01 T01090016  RH  053%=      5-min Rain = 0
KGO1 081124Z 28014KT 11/02 A2985 RMK A01 T01080016  RH  053%=      5-min Rain = 0
KGO1 081125Z 28014KT 11/02 A2985 RMK A01 T01080016  RH  053%=      5-min Rain = 0
KGO1 081126Z 28012KT 11/02 A2985 RMK A01 T01080016  RH  053%=      5-min Rain = 0
KGO1 081127Z 29012KT 11/02 A2985 RMK A01 T01060016  RH  053%=      5-min Rain = 0
KGO1 081128Z 29013KT 11/02 A2985 RMK A01 T01060016  RH  054%=      5-min Rain = 0
KGO1 081129Z 28013KT 11/02 A2985 RMK A01 T01050016  RH  054%=      5-min Rain = 0
KGO1 081130Z 28013KT 10/02 A2985 RMK A01 T01040016  RH  054%=      5-min Rain = 0
KGO1 081131Z 28013KT 10/02 A2985 RMK A01 T01040016  RH  054%=      5-min Rain = 0
KGO1 081132Z 28013KT 10/02 A2985 RMK A01 T01040016  RH  054%=      5-min Rain = 0
KGO1 081133Z 27013KT 10/02 A2985 RMK A01 T01040016  RH  055%=      5-min Rain = 0
KGO1 081134Z 27013KT 10/02 A2985 RMK A01 T01030016  RH  055%=      5-min Rain = 0
KGO1 081135Z 27013KT 10/02 A2985 RMK A01 T01030017  RH  055%=      5-min Rain = 0
KGO1 081136Z 27014KT 10/02 A2985 RMK A01 T01030016  RH  055%=      5-min Rain = 0
KGO1 081137Z 27014KT 10/02 A2985 RMK A01 T01040016  RH  054%=      5-min Rain = 0
KGO1 081138Z 27014KT 11/02 A2985 RMK A01 T01050016  RH  054%=      5-min Rain = 0
KGO1 081139Z 27014KT 11/02 A2985 RMK A01 T01060016  RH  054%=      5-min Rain = 0
KGO1 081140Z 28012KT 11/02 A2985 RMK A01 T01070017  RH  054%=      5-min Rain = 0
KGO1 081141Z 28013KT 11/02 A2985 RMK A01 T01070017  RH  054%=      5-min Rain = 0
KGO1 081142Z 28013KT 11/02 A2985 RMK A01 T01070017  RH  054%=      5-min Rain = 0
KGO1 081143Z 28013KT 11/02 A2985 RMK A01 T01070017  RH  054%=      5-min Rain = 0
KGO1 081144Z 28014KT 11/02 A2985 RMK A01 T01070017  RH  054%=      5-min Rain = 0
KGO1 081145Z 27013KT 11/02 A2985 RMK A01 T01070017  RH  054%=      5-min Rain = 0
KGO1 081146Z 27012KT 11/02 A2985 RMK A01 T01060017  RH  054%=      5-min Rain = 0
KGO1 081147Z 27013KT 11/02 A2985 RMK A01 T01060017  RH  054%=      5-min Rain = 0
KGO1 081148Z 27013KT 11/02 A2985 RMK A01 T01060017  RH  054%=      5-min Rain = 0
KGO1 081149Z 27013KT 11/02 A2985 RMK A01 T01060016  RH  054%=      5-min Rain = 0
KGO1 081150Z 27013KT 11/02 A2985 RMK A01 T01060016  RH  054%=      5-min Rain = 0
KGO1 081151Z 27013KT 11/02 A2985 RMK A01 T01060016  RH  054%=      5-min Rain = 0
KGO1 081152Z 27014KT 11/02 A2985 RMK A01 T01060017  RH  054%=      5-min Rain = 0
KGO1 081153Z 27013KT 11/02 A2985 RMK A01 T01060017  RH  054%=      5-min Rain = 0
KGO1 081154Z 27013KT 11/02 A2985 RMK A01 T01060017  RH  054%=      5-min Rain = 0
KGO1 081155Z 27012KT 11/02 A2985 RMK A01 T01050017  RH  054%=      5-min Rain = 0
KGO1 081156Z 27013KT 11/02 A2985 RMK A01 T01050016  RH  054%=      5-min Rain = 0
KGO1 081157Z 27013KT 11/02 A2985 RMK A01 T01050016  RH  054%=      5-min Rain = 0
KGO1 081158Z 27013KT 10/02 A2985 RMK A01 T01040016  RH  054%=      5-min Rain = 0
KGO1 081159Z 27013KT 10/02 A2985 RMK A01 T01040016  RH  054%=      5-min Rain = 0
KGO1 081200Z 27013KT 10/02 A2985 RMK A01 T01040017  RH  055%=      5-min Rain = 0
KGO1 081201Z 27013KT 10/02 A2985 RMK A01 T01040016  RH  055%=      5-min Rain = 0
KGO1 081202Z 26014KT 10/02 A2985 RMK A01 T01040017  RH  055%=      5-min Rain = 0
KGO1 081203Z 26014KT 10/02 A2985 RMK A01 T01030017  RH  055%=      5-min Rain = 0
KGO1 081204Z 26013KT 10/02 A2985 RMK A01 T01030017  RH  055%=      5-min Rain = 0
KGO1 081205Z 26013KT 10/02 A2985 RMK A01 T01020017  RH  055%=      5-min Rain = 0
KGO1 081206Z 26013KT 10/02 A2985 RMK A01 T01020017  RH  056%=      5-min Rain = 0
KGO1 081207Z 26014KT 10/02 A2985 RMK A01 T01010017  RH  056%=      5-min Rain = 0
KGO1 081208Z 26014KT 10/02 A2985 RMK A01 T01020017  RH  056%=      5-min Rain = 0
KGO1 081209Z 26015KT 10/02 A2985 RMK A01 T01010017  RH  056%=      5-min Rain = 0
KGO1 081210Z 26015KT 10/02 A2986 RMK A01 T01020017  RH  056%=      5-min Rain = 0
KGO1 081211Z 26015KT 10/02 A2986 RMK A01 T01020017  RH  056%=      5-min Rain = 0
KGO1 081212Z 26016KT 10/02 A2986 RMK A01 T01020017  RH  056%=      5-min Rain = 0
KGO1 081213Z 26015KT 10/02 A2986 RMK A01 T01020017  RH  056%=      5-min Rain = 0
KGO1 081214Z 26017KT 10/02 A2986 RMK A01 T01020017  RH  056%=      5-min Rain = 0
KGO1 081215Z 26016KT 10/02 A2986 RMK A01 T01020017  RH  055%=      5-min Rain = 0
KGO1 081216Z 26016KT 10/02 A2986 RMK A01 T01030017  RH  055%=      5-min Rain = 0
KGO1 081217Z 26015KT 10/02 A2986 RMK A01 T01040017  RH  055%=      5-min Rain = 0
KGO1 081218Z 27016KT 10/02 A2986 RMK A01 T01040017  RH  055%=      5-min Rain = 0
KGO1 081219Z 27015KT 11/02 A2986 RMK A01 T01050017  RH  055%=      5-min Rain = 0
KGO1 081220Z 27015KT 11/02 A2986 RMK A01 T01050017  RH  054%=      5-min Rain = 0
KGO1 081221Z 27014KT 11/02 A2986 RMK A01 T01050018  RH  054%=      5-min Rain = 0
KGO1 081222Z 27015KT 11/02 A2986 RMK A01 T01050018  RH  055%=      5-min Rain = 0
KGO1 081223Z 26016KT 11/02 A2986 RMK A01 T01050017  RH  055%=      5-min Rain = 0
KGO1 081224Z 26015KT 11/02 A2986 RMK A01 T01060018  RH  054%=      5-min Rain = 0
KGO1 081225Z 26016KT 11/02 A2986 RMK A01 T01060018  RH  054%=      5-min Rain = 0
KGO1 081226Z 27014KT 11/02 A2986 RMK A01 T01070018  RH  054%=      5-min Rain = 0
KGO1 081227Z 27014KT 11/02 A2986 RMK A01 T01070018  RH  054%=      5-min Rain = 0
KGO1 081228Z 27014KT 11/02 A2986 RMK A01 T01070018  RH  054%=      5-min Rain = 0
KGO1 081229Z 27013KT 11/02 A2986 RMK A01 T01070018  RH  054%=      5-min Rain = 0
KGO1 081230Z 27015KT 11/02 A2985 RMK A01 T01060018  RH  054%=      5-min Rain = 0
KGO1 081231Z 27014KT 11/02 A2985 RMK A01 T01060018  RH  054%=      5-min Rain = 0
KGO1 081232Z 27014KT 11/02 A2985 RMK A01 T01060018  RH  054%=      5-min Rain = 0
KGO1 081233Z 27015KT 11/02 A2985 RMK A01 T01060018  RH  054%=      5-min Rain = 0
KGO1 081234Z 27015KT 11/02 A2985 RMK A01 T01070018  RH  054%=      5-min Rain = 0
KGO1 081235Z 27015KT 11/02 A2985 RMK A01 T01080018  RH  054%=      5-min Rain = 0
KGO1 081236Z 27014KT 11/02 A2985 RMK A01 T01080018  RH  054%=      5-min Rain = 0
KGO1 081237Z 28013KT 11/02 A2985 RMK A01 T01080018  RH  054%=      5-min Rain = 0
KGO1 081238Z 27013KT 11/02 A2985 RMK A01 T01080018  RH  054%=      5-min Rain = 0
KGO1 081239Z 28013KT 11/02 A2985 RMK A01 T01080018  RH  054%=      5-min Rain = 0
KGO1 081240Z 28013KT 11/02 A2985 RMK A01 T01080018  RH  054%=      5-min Rain = 0
KGO1 081241Z 28012KT 11/02 A2985 RMK A01 T01070018  RH  054%=      5-min Rain = 0
KGO1 081242Z 28012KT 11/02 A2985 RMK A01 T01070019  RH  054%=      5-min Rain = 0
KGO1 081243Z 28012KT 11/02 A2985 RMK A01 T01070019  RH  054%=      5-min Rain = 0
KGO1 081244Z 28013KT 11/02 A2985 RMK A01 T01060018  RH  055%=      5-min Rain = 0
KGO1 081245Z 28012KT 11/02 A2985 RMK A01 T01060019  RH  055%=      5-min Rain = 0
KGO1 081246Z 28013KT 11/02 A2985 RMK A01 T01060019  RH  055%=      5-min Rain = 0
KGO1 081247Z 28013KT 11/02 A2985 RMK A01 T01050019  RH  055%=      5-min Rain = 0
KGO1 081248Z 28012KT 11/02 A2985 RMK A01 T01050019  RH  055%=      5-min Rain = 0
KGO1 081249Z 29013KT 11/02 A2985 RMK A01 T01050019  RH  055%=      5-min Rain = 0
KGO1 081250Z 29013KT 10/02 A2985 RMK A01 T01040019  RH  055%=      5-min Rain = 0
KGO1 081251Z 28012KT 10/02 A2985 RMK A01 T01040019  RH  055%=      5-min Rain = 0
KGO1 081252Z 29013KT 10/02 A2985 RMK A01 T01040019  RH  056%=      5-min Rain = 0
KGO1 081253Z 29013KT 10/02 A2984 RMK A01 T01030018  RH  056%=      5-min Rain = 0
KGO1 081254Z 29012KT 10/02 A2984 RMK A01 T01030018  RH  056%=      5-min Rain = 0
KGO1 081255Z 29013KT 10/02 A2984 RMK A01 T01030019  RH  056%=      5-min Rain = 0
KGO1 081256Z 29013KT 10/02 A2984 RMK A01 T01030019  RH  056%=      5-min Rain = 0
KGO1 081257Z 29013KT 10/02 A2984 RMK A01 T01030019  RH  056%=      5-min Rain = 0
KGO1 081258Z 29014KT 10/02 A2984 RMK A01 T01030019  RH  056%=      5-min Rain = 0
KGO1 081259Z 29013KT 10/02 A2984 RMK A01 T01040019  RH  056%=      5-min Rain = 0
KGO1 081300Z 29014KT 10/02 A2984 RMK A01 T01040018  RH  056%=      5-min Rain = 0
KGO1 081301Z 28013KT 10/02 A2984 RMK A01 T01040018  RH  055%=      5-min Rain = 0
KGO1 081302Z 28013KT 10/02 A2985 RMK A01 T01040018  RH  055%=      5-min Rain = 0
KGO1 081303Z 28013KT 10/02 A2985 RMK A01 T01040018  RH  055%=      5-min Rain = 0
KGO1 081304Z 28014KT 10/02 A2985 RMK A01 T01040018  RH  056%=      5-min Rain = 0
KGO1 081305Z 28015KT 10/02 A2985 RMK A01 T01040019  RH  055%=      5-min Rain = 0
KGO1 081306Z 29015KT 10/02 A2985 RMK A01 T01040018  RH  055%=      5-min Rain = 0
KGO1 081307Z 29015KT 10/02 A2985 RMK A01 T01040018  RH  055%=      5-min Rain = 0
KGO1 081308Z 29013KT 10/02 A2985 RMK A01 T01040019  RH  055%=      5-min Rain = 0
KGO1 081309Z 28013KT 10/02 A2985 RMK A01 T01040019  RH  056%=      5-min Rain = 0
KGO1 081310Z 29013KT 10/02 A2985 RMK A01 T01030019  RH  056%=      5-min Rain = 0
KGO1 081311Z 29014KT 10/02 A2985 RMK A01 T01020018  RH  056%=      5-min Rain = 0
KGO1 081312Z 29014KT 10/02 A2985 RMK A01 T01020018  RH  056%=      5-min Rain = 0
KGO1 081313Z 29014KT 10/02 A2985 RMK A01 T01020018  RH  056%=      5-min Rain = 0
KGO1 081314Z 29014KT 10/02 A2985 RMK A01 T01020018  RH  056%=      5-min Rain = 0
KGO1 081315Z 29013KT 10/02 A2985 RMK A01 T01030018  RH  056%=      5-min Rain = 0
KGO1 081316Z 29013KT 10/02 A2986 RMK A01 T01030018  RH  056%=      5-min Rain = 0
KGO1 081317Z 29011KT 10/02 A2986 RMK A01 T01030019  RH  056%=      5-min Rain = 0
KGO1 081318Z 29013KT 10/02 A2986 RMK A01 T01020018  RH  056%=      5-min Rain = 0
KGO1 081319Z 28011KT 10/02 A2986 RMK A01 T01020018  RH  056%=      5-min Rain = 0
KGO1 081320Z 28013KT 10/02 A2986 RMK A01 T01020018  RH  056%=      5-min Rain = 0
KGO1 081321Z 28013KT 10/02 A2985 RMK A01 T01020019  RH  056%=      5-min Rain = 0
KGO1 081322Z 29013KT 10/02 A2985 RMK A01 T01020019  RH  056%=      5-min Rain = 0
KGO1 081323Z 28012KT 10/02 A2985 RMK A01 T01010018  RH  056%=      5-min Rain = 0
KGO1 081324Z 28012KT 10/02 A2985 RMK A01 T01010018  RH  056%=      5-min Rain = 0
KGO1 081325Z 28013KT 10/02 A2985 RMK A01 T01010018  RH  056%=      5-min Rain = 0
KGO1 081326Z 28013KT 10/02 A2985 RMK A01 T01020018  RH  056%=      5-min Rain = 0
KGO1 081327Z 28012KT 10/02 A2985 RMK A01 T01020018  RH  056%=      5-min Rain = 0
KGO1 081328Z 28012KT 10/02 A2985 RMK A01 T01020018  RH  056%=      5-min Rain = 0
KGO1 081329Z 28012KT 10/02 A2985 RMK A01 T01020018  RH  056%=      5-min Rain = 0
KGO1 081330Z 28011KT 10/02 A2985 RMK A01 T01020018  RH  056%=      5-min Rain = 0
KGO1 081331Z 28010KT 10/02 A2985 RMK A01 T01020018  RH  056%=      5-min Rain = 0
KGO1 081332Z 28010KT 10/02 A2985 RMK A01 T01020019  RH  056%=      5-min Rain = 0
KGO1 081333Z 28011KT 10/02 A2985 RMK A01 T01010019  RH  056%=      5-min Rain = 0
KGO1 081334Z 28010KT 10/02 A2985 RMK A01 T01010018  RH  057%=      5-min Rain = 0
KGO1 081335Z 28010KT 10/02 A2985 RMK A01 T01010019  RH  057%=      5-min Rain = 0
KGO1 081336Z 28010KT 10/02 A2985 RMK A01 T01000019  RH  057%=      5-min Rain = 0
KGO1 081337Z 28009KT 10/02 A2985 RMK A01 T00990019  RH  057%=      5-min Rain = 0
KGO1 081338Z 28009KT 10/02 A2985 RMK A01 T00990019  RH  057%=      5-min Rain = 0
KGO1 081339Z 28009KT 10/02 A2985 RMK A01 T00990019  RH  058%=      5-min Rain = 0
KGO1 081340Z 27010KT 10/02 A2985 RMK A01 T00990020  RH  058%=      5-min Rain = 0
KGO1 081341Z 27010KT 10/02 A2985 RMK A01 T00990020  RH  058%=      5-min Rain = 0
KGO1 081342Z 27011KT 10/02 A2985 RMK A01 T00990020  RH  058%=      5-min Rain = 0
KGO1 081343Z 27011KT 10/02 A2985 RMK A01 T00990020  RH  058%=      5-min Rain = 0
KGO1 081344Z 27012KT 10/02 A2985 RMK A01 T00990020  RH  058%=      5-min Rain = 0
KGO1 081345Z 26012KT 10/02 A2986 RMK A01 T00990020  RH  058%=      5-min Rain = 0
KGO1 081346Z 26013KT 10/02 A2986 RMK A01 T00990020  RH  058%=      5-min Rain = 0
KGO1 081347Z 27012KT 10/02 A2986 RMK A01 T00990020  RH  058%=      5-min Rain = 0
KGO1 081348Z 27012KT 10/02 A2986 RMK A01 T01000020  RH  058%=      5-min Rain = 0
KGO1 081349Z 27011KT 10/02 A2986 RMK A01 T01010021  RH  057%=      5-min Rain = 0
KGO1 081350Z 27011KT 10/02 A2986 RMK A01 T01010020  RH  057%=      5-min Rain = 0
KGO1 081351Z 27011KT 10/02 A2986 RMK A01 T01020021  RH  057%=      5-min Rain = 0
KGO1 081352Z 27011KT 10/02 A2986 RMK A01 T01030021  RH  057%=      5-min Rain = 0
KGO1 081353Z 27011KT 10/02 A2986 RMK A01 T01040021  RH  056%=      5-min Rain = 0
KGO1 081354Z 27011KT 10/02 A2985 RMK A01 T01040021  RH  056%=      5-min Rain = 0
KGO1 081355Z 27011KT 11/02 A2985 RMK A01 T01050021  RH  056%=      5-min Rain = 0
KGO1 081356Z 27011KT 11/02 A2985 RMK A01 T01050021  RH  056%=      5-min Rain = 0
KGO1 081357Z 27011KT 11/02 A2985 RMK A01 T01050021  RH  056%=      5-min Rain = 0
KGO1 081358Z 28011KT 11/02 A2985 RMK A01 T01070022  RH  056%=      5-min Rain = 0
KGO1 081359Z 28011KT 11/02 A2985 RMK A01 T01070021  RH  055%=      5-min Rain = 0
KGO1 081400Z 28011KT 11/02 A2985 RMK A01 T01070021  RH  055%=      5-min Rain = 0
KGO1 081401Z 28010KT 11/02 A2985 RMK A01 T01070021  RH  055%=      5-min Rain = 0
KGO1 081402Z 28010KT 11/02 A2985 RMK A01 T01070022  RH  055%=      5-min Rain = 0
KGO1 081403Z 28010KT 11/02 A2985 RMK A01 T01070022  RH  056%=      5-min Rain = 0
KGO1 081404Z 28011KT 11/02 A2985 RMK A01 T01070021  RH  056%=      5-min Rain = 0
KGO1 081405Z 28010KT 11/02 A2985 RMK A01 T01070022  RH  056%=      5-min Rain = 0
KGO1 081406Z 29010KT 11/02 A2985 RMK A01 T01070022  RH  056%=      5-min Rain = 0
KGO1 081407Z 29009KT 11/02 A2985 RMK A01 T01070022  RH  056%=      5-min Rain = 0
KGO1 081408Z 29010KT 11/02 A2985 RMK A01 T01060022  RH  056%=      5-min Rain = 0
KGO1 081409Z 28010KT 11/02 A2985 RMK A01 T01060022  RH  056%=      5-min Rain = 0
KGO1 081410Z 28010KT 11/02 A2985 RMK A01 T01070022  RH  056%=      5-min Rain = 0
KGO1 081411Z 28010KT 11/02 A2985 RMK A01 T01060022  RH  056%=      5-min Rain = 0
KGO1 081412Z 28011KT 11/02 A2985 RMK A01 T01070022  RH  056%=      5-min Rain = 0
KGO1 081413Z 27011KT 11/02 A2985 RMK A01 T01070023  RH  056%=      5-min Rain = 0
KGO1 081414Z 28012KT 11/02 A2985 RMK A01 T01080023  RH  056%=      5-min Rain = 0
KGO1 081415Z 28012KT 11/02 A2985 RMK A01 T01090023  RH  055%=      5-min Rain = 0
KGO1 081416Z 28012KT 11/02 A2985 RMK A01 T01100023  RH  055%=      5-min Rain = 0
KGO1 081417Z 28013KT 11/02 A2985 RMK A01 T01090022  RH  055%=      5-min Rain = 0
KGO1 081418Z 28012KT 11/02 A2985 RMK A01 T01100023  RH  055%=      5-min Rain = 0
KGO1 081419Z 28012KT 11/02 A2985 RMK A01 T01100023  RH  055%=      5-min Rain = 0
KGO1 081420Z 28012KT 11/02 A2985 RMK A01 T01100023  RH  055%=      5-min Rain = 0
KGO1 081421Z 28011KT 11/02 A2985 RMK A01 T01100024  RH  055%=      5-min Rain = 0
KGO1 081422Z 27012KT 11/02 A2985 RMK A01 T01100024  RH  056%=      5-min Rain = 0
KGO1 081423Z 28013KT 11/02 A2985 RMK A01 T01090024  RH  056%=      5-min Rain = 0
KGO1 081424Z 27013KT 11/02 A2985 RMK A01 T01100024  RH  055%=      5-min Rain = 0
KGO1 081425Z 27013KT 11/02 A2985 RMK A01 T01110024  RH  055%=      5-min Rain = 0
KGO1 081426Z 27012KT 11/02 A2985 RMK A01 T01120024  RH  055%=      5-min Rain = 0
KGO1 081427Z 27013KT 11/02 A2985 RMK A01 T01120024  RH  055%=      5-min Rain = 0
KGO1 081428Z 27012KT 11/03 A2985 RMK A01 T01120025  RH  055%=      5-min Rain = 0
KGO1 081429Z 27012KT 11/02 A2985 RMK A01 T01120024  RH  055%=      5-min Rain = 0
KGO1 081430Z 28011KT 11/03 A2984 RMK A01 T01120025  RH  055%=      5-min Rain = 0
KGO1 081431Z 28012KT 11/02 A2984 RMK A01 T01120024  RH  055%=      5-min Rain = 0
KGO1 081432Z 28012KT 11/02 A2984 RMK A01 T01120024  RH  055%=      5-min Rain = 0
KGO1 081433Z 28012KT 11/02 A2985 RMK A01 T01120024  RH  055%=      5-min Rain = 0
KGO1 081434Z 28012KT 11/02 A2985 RMK A01 T01120024  RH  055%=      5-min Rain = 0
KGO1 081435Z 28011KT 11/02 A2984 RMK A01 T01110024  RH  055%=      5-min Rain = 0
KGO1 081436Z 28010KT 11/02 A2984 RMK A01 T01110024  RH  055%=      5-min Rain = 0
KGO1 081437Z 28010KT 11/02 A2984 RMK A01 T01110024  RH  055%=      5-min Rain = 0
KGO1 081438Z 28010KT 11/02 A2984 RMK A01 T01100024  RH  055%=      5-min Rain = 0
KGO1 081439Z 28011KT 11/03 A2984 RMK A01 T01110025  RH  055%=      5-min Rain = 0
KGO1 081440Z 28011KT 11/03 A2984 RMK A01 T01120025  RH  055%=      5-min Rain = 0
KGO1 081441Z 29011KT 11/03 A2984 RMK A01 T01120026  RH  055%=      5-min Rain = 0
KGO1 081442Z 29010KT 11/03 A2984 RMK A01 T01120026  RH  055%=      5-min Rain = 0
KGO1 081443Z 29010KT 11/03 A2984 RMK A01 T01130026  RH  055%=      5-min Rain = 0
KGO1 081444Z 29009KT 11/03 A2984 RMK A01 T01130026  RH  055%=      5-min Rain = 0
KGO1 081445Z 29011KT 11/03 A2984 RMK A01 T01140026  RH  055%=      5-min Rain = 0
KGO1 081446Z 29011KT 12/03 A2984 RMK A01 T01150027  RH  055%=      5-min Rain = 0
KGO1 081447Z 28010KT 12/03 A2984 RMK A01 T01160028  RH  054%=      5-min Rain = 0
KGO1 081448Z 29012KT 12/03 A2984 RMK A01 T01190029  RH  054%=      5-min Rain = 0
KGO1 081449Z 28011KT 12/03 A2984 RMK A01 T01210028  RH  053%=      5-min Rain = 0
KGO1 081450Z 28011KT 12/03 A2985 RMK A01 T01220030  RH  053%=      5-min Rain = 0
KGO1 081451Z 28010KT 12/03 A2985 RMK A01 T01230030  RH  053%=      5-min Rain = 0
KGO1 081452Z 28011KT 12/03 A2985 RMK A01 T01240031  RH  053%=      5-min Rain = 0
KGO1 081453Z 28011KT 12/03 A2985 RMK A01 T01230029  RH  053%=      5-min Rain = 0
KGO1 081454Z 27012KT 12/03 A2985 RMK A01 T01230029  RH  053%=      5-min Rain = 0
KGO1 081455Z 28013KT 12/03 A2985 RMK A01 T01230029  RH  053%=      5-min Rain = 0
KGO1 081456Z 27012KT 12/03 A2984 RMK A01 T01230029  RH  052%=      5-min Rain = 0
KGO1 081457Z 27012KT 12/03 A2984 RMK A01 T01230029  RH  053%=      5-min Rain = 0
KGO1 081458Z 27012KT 12/03 A2984 RMK A01 T01220028  RH  053%=      5-min Rain = 0
KGO1 081459Z 27012KT 12/03 A2984 RMK A01 T01220029  RH  053%=      5-min Rain = 0
KGO1 081500Z 27012KT 12/03 A2984 RMK A01 T01220029  RH  053%=      5-min Rain = 0
KGO1 081501Z 27010KT 12/03 A2984 RMK A01 T01220029  RH  053%=      5-min Rain = 0
KGO1 081502Z 28012KT 12/03 A2984 RMK A01 T01220028  RH  053%=      5-min Rain = 0
KGO1 081503Z 28012KT 12/03 A2984 RMK A01 T01220028  RH  053%=      5-min Rain = 0
KGO1 081504Z 28011KT 12/03 A2984 RMK A01 T01220029  RH  053%=      5-min Rain = 0
KGO1 081505Z 28011KT 12/03 A2984 RMK A01 T01220029  RH  053%=      5-min Rain = 0
KGO1 081506Z 27011KT 12/03 A2983 RMK A01 T01220029  RH  053%=      5-min Rain = 0
KGO1 081507Z 27011KT 12/03 A2983 RMK A01 T01220029  RH  053%=      5-min Rain = 0
KGO1 081508Z 27013KT 12/03 A2984 RMK A01 T01220029  RH  053%=      5-min Rain = 0
KGO1 081509Z 27012KT 12/03 A2984 RMK A01 T01220029  RH  053%=      5-min Rain = 0
KGO1 081510Z 27012KT 12/03 A2984 RMK A01 T01230029  RH  053%=      5-min Rain = 0
KGO1 081511Z 26012KT 12/03 A2983 RMK A01 T01230030  RH  053%=      5-min Rain = 0
KGO1 081512Z 27011KT 12/03 A2983 RMK A01 T01240031  RH  053%=      5-min Rain = 0
KGO1 081513Z 27012KT 12/03 A2983 RMK A01 T01240031  RH  053%=      5-min Rain = 0
KGO1 081514Z 27014KT 13/03 A2984 RMK A01 T01250030  RH  053%=      5-min Rain = 0
KGO1 081515Z 27013KT 13/03 A2984 RMK A01 T01260031  RH  052%=      5-min Rain = 0
KGO1 081516Z 28012KT 13/03 A2984 RMK A01 T01260031  RH  052%=      5-min Rain = 0
KGO1 081517Z 27013KT 13/03 A2984 RMK A01 T01260031  RH  052%=      5-min Rain = 0
KGO1 081518Z 27014KT 13/03 A2984 RMK A01 T01270031  RH  052%=      5-min Rain = 0
KGO1 081519Z 27013KT 13/03 A2984 RMK A01 T01280032  RH  052%=      5-min Rain = 0
KGO1 081520Z 27014KT 13/03 A2984 RMK A01 T01290031  RH  051%=      5-min Rain = 0
KGO1 081521Z 27014KT 13/03 A2984 RMK A01 T01300032  RH  051%=      5-min Rain = 0
KGO1 081522Z 27015KT 13/03 A2984 RMK A01 T01310033  RH  051%=      5-min Rain = 0
KGO1 081523Z 26015KT 13/03 A2984 RMK A01 T01310033  RH  051%=      5-min Rain = 0
KGO1 081524Z 27014KT 13/03 A2984 RMK A01 T01320033  RH  051%=      5-min Rain = 0
KGO1 081525Z 27015KT 13/03 A2984 RMK A01 T01330033  RH  051%=      5-min Rain = 0
KGO1 081526Z 26018KT 13/03 A2984 RMK A01 T01340033  RH  050%=      5-min Rain = 0
KGO1 081527Z 26015KT 13/03 A2984 RMK A01 T01340032  RH  050%=      5-min Rain = 0
KGO1 081528Z 27016KT 14/03 A2984 RMK A01 T01350033  RH  050%=      5-min Rain = 0
KGO1 081529Z 26014KT 14/03 A2984 RMK A01 T01360034  RH  050%=      5-min Rain = 0
KGO1 081530Z 26014KT 14/04 A2984 RMK A01 T01370035  RH  050%=      5-min Rain = 0
KGO1 081531Z 26016KT 14/04 A2984 RMK A01 T01380035  RH  050%=      5-min Rain = 0
KGO1 081532Z 26016KT 14/03 A2984 RMK A01 T01380034  RH  049%=      5-min Rain = 0
KGO1 081533Z 26015KT 14/03 A2984 RMK A01 T01390034  RH  049%=      5-min Rain = 0
KGO1 081534Z 26014KT 14/04 A2984 RMK A01 T01390035  RH  049%=      5-min Rain = 0
KGO1 081535Z 27013G18KT 14/04 A2984 RMK A01 T01390035  RH  049%=      5-min Rain = 0
KGO1 081536Z 27013KT 14/04 A2984 RMK A01 T01390035  RH  049%=      5-min Rain = 0
KGO1 081537Z 26015G20KT 14/04 A2984 RMK A01 T01400035  RH  049%=      5-min Rain = 0
KGO1 081538Z 27015KT 14/03 A2984 RMK A01 T01400034  RH  049%=      5-min Rain = 0
KGO1 081539Z 27017KT 14/03 A2984 RMK A01 T01410034  RH  049%=      5-min Rain = 0
KGO1 081540Z 26016KT 14/03 A2984 RMK A01 T01410034  RH  049%=      5-min Rain = 0
KGO1 081541Z 27017KT 14/03 A2984 RMK A01 T01410034  RH  049%=      5-min Rain = 0
KGO1 081542Z 27015KT 14/03 A2984 RMK A01 T01410034  RH  048%=      5-min Rain = 0
KGO1 081543Z 27014KT 14/04 A2984 RMK A01 T01420035  RH  049%=      5-min Rain = 0
KGO1 081544Z 27014KT 14/04 A2984 RMK A01 T01420035  RH  049%=      5-min Rain = 0
KGO1 081545Z 27017KT 14/04 A2983 RMK A01 T01420035  RH  049%=      5-min Rain = 0
KGO1 081546Z 27016KT 14/04 A2983 RMK A01 T01430035  RH  048%=      5-min Rain = 0
KGO1 081547Z 27014KT 14/04 A2984 RMK A01 T01430035  RH  048%=      5-min Rain = 0
KGO1 081548Z 27016KT 14/04 A2984 RMK A01 T01430036  RH  048%=      5-min Rain = 0
KGO1 081549Z 27018KT 14/04 A2984 RMK A01 T01430035  RH  048%=      5-min Rain = 0
KGO1 081550Z 27017KT 14/04 A2984 RMK A01 T01440035  RH  048%=      5-min Rain = 0
KGO1 081551Z 27017KT 14/04 A2984 RMK A01 T01440035  RH  048%=      5-min Rain = 0
KGO1 081552Z 27014KT 14/04 A2984 RMK A01 T01440036  RH  048%=      5-min Rain = 0
KGO1 081553Z 27014KT 14/04 A2984 RMK A01 T01440036  RH  048%=      5-min Rain = 0
KGO1 081554Z 27014G19KT 15/04 A2984 RMK A01 T01450036  RH  048%=      5-min Rain = 0
KGO1 081555Z 27014KT 15/04 A2984 RMK A01 T01450036  RH  048%=      5-min Rain = 0
KGO1 081556Z 27014KT 15/04 A2984 RMK A01 T01460037  RH  048%=      5-min Rain = 0
KGO1 081557Z 27016KT 15/04 A2984 RMK A01 T01460037  RH  048%=      5-min Rain = 0
KGO1 081558Z 27016KT 15/04 A2984 RMK A01 T01460037  RH  048%=      5-min Rain = 0
KGO1 081559Z 27015KT 15/04 A2984 RMK A01 T01470037  RH  048%=      5-min Rain = 0
KGO1 081600Z 27015KT 15/04 A2984 RMK A01 T01470037  RH  048%=      5-min Rain = 0
KGO1 081601Z 27015KT 15/04 A2984 RMK A01 T01470037  RH  048%=      5-min Rain = 0
KGO1 081602Z 27015KT 15/04 A2984 RMK A01 T01470037  RH  048%=      5-min Rain = 0
KGO1 081603Z 27015KT 15/04 A2984 RMK A01 T01480038  RH  048%=      5-min Rain = 0
KGO1 081604Z 27018KT 15/04 A2983 RMK A01 T01480038  RH  048%=      5-min Rain = 0
KGO1 081605Z 27015KT 15/04 A2983 RMK A01 T01490038  RH  047%=      5-min Rain = 0
KGO1 081606Z 27015KT 15/04 A2983 RMK A01 T01490038  RH  047%=      5-min Rain = 0
KGO1 081607Z 27015KT 15/04 A2983 RMK A01 T01500039  RH  047%=      5-min Rain = 0
KGO1 081608Z 27017KT 15/04 A2983 RMK A01 T01510039  RH  047%=      5-min Rain = 0
KGO1 081609Z 27018KT 15/04 A2983 RMK A01 T01520039  RH  047%=      5-min Rain = 0
KGO1 081610Z 27019KT 15/04 A2983 RMK A01 T01530039  RH  046%=      5-min Rain = 0
KGO1 081611Z 27017KT 15/04 A2983 RMK A01 T01530039  RH  046%=      5-min Rain = 0
KGO1 081612Z 27017KT 15/04 A2983 RMK A01 T01540039  RH  046%=      5-min Rain = 0
KGO1 081613Z 27016KT 16/04 A2983 RMK A01 T01550040  RH  046%=      5-min Rain = 0
KGO1 081614Z 27017G24KT 16/04 A2983 RMK A01 T01550039  RH  046%=      5-min Rain = 0
KGO1 081615Z 27018KT 16/04 A2983 RMK A01 T01560039  RH  046%=      5-min Rain = 0
KGO1 081616Z 27018KT 16/04 A2983 RMK A01 T01560039  RH  046%=      5-min Rain = 0
KGO1 081617Z 27019KT 16/04 A2983 RMK A01 T01570039  RH  045%=      5-min Rain = 0
KGO1 081618Z 27016KT 16/04 A2983 RMK A01 T01580039  RH  045%=      5-min Rain = 0
KGO1 081619Z 27019KT 16/04 A2983 RMK A01 T01590041  RH  045%=      5-min Rain = 0
KGO1 081620Z 27019KT 16/04 A2983 RMK A01 T01600040  RH  045%=      5-min Rain = 0
KGO1 081621Z 27020KT 16/04 A2983 RMK A01 T01580039  RH  045%=      5-min Rain = 0
KGO1 081622Z 27020KT 16/04 A2983 RMK A01 T01580039  RH  045%=      5-min Rain = 0
KGO1 081623Z 27018KT 16/04 A2983 RMK A01 T01580039  RH  045%=      5-min Rain = 0
KGO1 081624Z 27019KT 16/04 A2983 RMK A01 T01570040  RH  045%=      5-min Rain = 0
KGO1 081625Z 27021KT 16/04 A2983 RMK A01 T01560039  RH  045%=      5-min Rain = 0
KGO1 081626Z 27019KT 16/04 A2983 RMK A01 T01550038  RH  046%=      5-min Rain = 0
KGO1 081627Z 27018KT 15/04 A2983 RMK A01 T01540038  RH  046%=      5-min Rain = 0
KGO1 081628Z 27019KT 15/04 A2983 RMK A01 T01530039  RH  046%=      5-min Rain = 0
KGO1 081629Z 27017KT 15/04 A2983 RMK A01 T01540039  RH  046%=      5-min Rain = 0
KGO1 081630Z 27018KT 16/04 A2983 RMK A01 T01550040  RH  046%=      5-min Rain = 0
KGO1 081631Z 27017KT 16/04 A2983 RMK A01 T01570041  RH  046%=      5-min Rain = 0
KGO1 081632Z 27016KT 16/04 A2983 RMK A01 T01590041  RH  045%=      5-min Rain = 0
KGO1 081633Z 27018KT 16/04 A2983 RMK A01 T01600041  RH  045%=      5-min Rain = 0
KGO1 081634Z 27015KT 16/04 A2983 RMK A01 T01610042  RH  045%=      5-min Rain = 0
KGO1 081635Z 27016KT 16/04 A2983 RMK A01 T01620042  RH  045%=      5-min Rain = 0
KGO1 081636Z 27015KT 16/04 A2983 RMK A01 T01640043  RH  045%=      5-min Rain = 0
KGO1 081637Z 27017KT 17/04 A2982 RMK A01 T01650044  RH  044%=      5-min Rain = 0
KGO1 081638Z 27018KT 17/04 A2982 RMK A01 T01660043  RH  044%=      5-min Rain = 0
KGO1 081639Z 27020KT 17/04 A2982 RMK A01 T01670043  RH  044%=      5-min Rain = 0
KGO1 081640Z 27017KT 17/04 A2983 RMK A01 T01680043  RH  044%=      5-min Rain = 0
KGO1 081641Z 27020KT 17/04 A2982 RMK A01 T01700044  RH  043%=      5-min Rain = 0
KGO1 081642Z 27020KT 17/04 A2983 RMK A01 T01680041  RH  043%=      5-min Rain = 0
KGO1 081643Z 28019KT 17/04 A2983 RMK A01 T01660041  RH  043%=      5-min Rain = 0
KGO1 081644Z 28018KT 17/04 A2982 RMK A01 T01650041  RH  044%=      5-min Rain = 0
KGO1 081645Z 27017KT 17/04 A2982 RMK A01 T01660042  RH  044%=      5-min Rain = 0
KGO1 081646Z 26016KT 17/04 A2982 RMK A01 T01670042  RH  044%=      5-min Rain = 0
KGO1 081647Z 27018KT 17/04 A2982 RMK A01 T01670044  RH  044%=      5-min Rain = 0
KGO1 081648Z 27015G22KT 17/05 A2983 RMK A01 T01700046  RH  044%=      5-min Rain = 0
KGO1 081649Z 26020G25KT 17/05 A2982 RMK A01 T01720045  RH  043%=      5-min Rain = 0
KGO1 081650Z 26020G25KT 17/04 A2982 RMK A01 T01730043  RH  042%=      5-min Rain = 0
KGO1 081651Z 26024KT 17/04 A2982 RMK A01 T01730043  RH  042%=      5-min Rain = 0
KGO1 081652Z 27021KT 17/04 A2982 RMK A01 T01720042  RH  042%=      5-min Rain = 0
KGO1 081653Z 27020KT 17/04 A2981 RMK A01 T01720042  RH  042%=      5-min Rain = 0
KGO1 081654Z 27018G23KT 17/04 A2981 RMK A01 T01710043  RH  043%=      5-min Rain = 0
KGO1 081655Z 26021KT 17/04 A2981 RMK A01 T01730044  RH  042%=      5-min Rain = 0
KGO1 081656Z 27020KT 17/04 A2981 RMK A01 T01740042  RH  042%=      5-min Rain = 0
KGO1 081657Z 27021KT 17/04 A2981 RMK A01 T01730043  RH  042%=      5-min Rain = 0
KGO1 081658Z 26022KT 17/04 A2981 RMK A01 T01720041  RH  042%=      5-min Rain = 0
KGO1 081659Z 26023KT 17/04 A2981 RMK A01 T01710041  RH  042%=      5-min Rain = 0
KGO1 081700Z 27022KT 17/04 A2981 RMK A01 T01710041  RH  042%=      5-min Rain = 0
KGO1 081701Z 26023KT 17/04 A2981 RMK A01 T01710041  RH  042%=      5-min Rain = 0
KGO1 081702Z 26023KT 17/04 A2981 RMK A01 T01690041  RH  042%=      5-min Rain = 0
KGO1 081703Z 27021KT 17/04 A2981 RMK A01 T01700042  RH  043%=      5-min Rain = 0
KGO1 081704Z 27022KT 17/04 A2981 RMK A01 T01700041  RH  042%=      5-min Rain = 0
KGO1 081705Z 27020KT 17/04 A2981 RMK A01 T01700042  RH  043%=      5-min Rain = 0
KGO1 081706Z 26023G28KT 17/04 A2981 RMK A01 T01710042  RH  042%=      5-min Rain = 0
KGO1 081707Z 26024KT 17/04 A2981 RMK A01 T01710042  RH  042%=      5-min Rain = 0
KGO1 081708Z 26023G28KT 17/04 A2981 RMK A01 T01700042  RH  042%=      5-min Rain = 0
KGO1 081709Z 26021KT 17/04 A2981 RMK A01 T01710042  RH  042%=      5-min Rain = 0
KGO1 081710Z 27021KT 17/04 A2981 RMK A01 T01710042  RH  042%=      5-min Rain = 0
KGO1 081711Z 27023KT 17/04 A2981 RMK A01 T01720042  RH  042%=      5-min Rain = 0
KGO1 081712Z 27020KT 17/04 A2981 RMK A01 T01720043  RH  042%=      5-min Rain = 0
KGO1 081713Z 26020G27KT 17/04 A2981 RMK A01 T01720043  RH  042%=      5-min Rain = 0
KGO1 081714Z 27023KT 17/04 A298 RMK A01 T01730043  RH  042%=      5-min Rain = 0
KGO1 081715Z 26021KT 17/04 A298 RMK A01 T01720043  RH  042%=      5-min Rain = 0
KGO1 081716Z 26020G25KT 17/04 A2981 RMK A01 T01710043  RH  043%=      5-min Rain = 0
KGO1 081717Z 26022KT 17/04 A298 RMK A01 T01700043  RH  043%=      5-min Rain = 0
KGO1 081718Z 26022KT 17/04 A2981 RMK A01 T01710043  RH  043%=      5-min Rain = 0
KGO1 081719Z 26022KT 17/04 A298 RMK A01 T01710043  RH  043%=      5-min Rain = 0
KGO1 081720Z 26020G25KT 17/04 A298 RMK A01 T01700043  RH  043%=      5-min Rain = 0
KGO1 081721Z 26022KT 17/04 A298 RMK A01 T01710043  RH  043%=      5-min Rain = 0
KGO1 081722Z 27019KT 17/04 A298 RMK A01 T01710044  RH  043%=      5-min Rain = 0
KGO1 081723Z 26019KT 17/04 A298 RMK A01 T01720044  RH  043%=      5-min Rain = 0
KGO1 081724Z 26019KT 17/05 A298 RMK A01 T01720045  RH  043%=      5-min Rain = 0
KGO1 081725Z 26015KT 17/05 A298 RMK A01 T01730045  RH  043%=      5-min Rain = 0
KGO1 081726Z 25020G25KT 17/05 A298 RMK A01 T01730046  RH  043%=      5-min Rain = 0
KGO1 081727Z 25021KT 17/04 A298 RMK A01 T01720044  RH  043%=      5-min Rain = 0
KGO1 081728Z 25022KT 17/05 A298 RMK A01 T01710045  RH  043%=      5-min Rain = 0
KGO1 081729Z 26020KT 17/05 A298 RMK A01 T01720046  RH  043%=      5-min Rain = 0
KGO1 081730Z 26019G24KT 17/05 A298 RMK A01 T01730047  RH  043%=      5-min Rain = 0
KGO1 081731Z 25019KT 18/05 A298 RMK A01 T01760048  RH  043%=      5-min Rain = 0
KGO1 081732Z 25023KT 18/05 A298 RMK A01 T01770047  RH  042%=      5-min Rain = 0
KGO1 081733Z 25019KT 18/05 A298 RMK A01 T01760048  RH  043%=      5-min Rain = 0
KGO1 081734Z 26019KT 18/05 A298 RMK A01 T01770048  RH  042%=      5-min Rain = 0
KGO1 081735Z 26022KT 18/05 A298 RMK A01 T01790048  RH  042%=      5-min Rain = 0
KGO1 081736Z 27021KT 18/05 A298 RMK A01 T01790046  RH  041%=      5-min Rain = 0
KGO1 081737Z 26021KT 18/05 A298 RMK A01 T01790046  RH  041%=      5-min Rain = 0
KGO1 081738Z 26022KT 18/05 A298 RMK A01 T01790046  RH  041%=      5-min Rain = 0
KGO1 081739Z 27021KT 18/05 A298 RMK A01 T01790047  RH  042%=      5-min Rain = 0
KGO1 081740Z 27021KT 18/05 A298 RMK A01 T01790046  RH  042%=      5-min Rain = 0
KGO1 081741Z 26022G27KT 18/05 A298 RMK A01 T01790047  RH  042%=      5-min Rain = 0
KGO1 081742Z 27023KT 18/05 A298 RMK A01 T01790046  RH  041%=      5-min Rain = 0
KGO1 081743Z 27021KT 18/05 A298 RMK A01 T01800047  RH  041%=      5-min Rain = 0
KGO1 081744Z 26025G30KT 18/05 A2979 RMK A01 T01800047  RH  041%=      5-min Rain = 0
KGO1 081745Z 26025KT 18/05 A2979 RMK A01 T01800047  RH  041%=      5-min Rain = 0
KGO1 081746Z 26021G26KT 18/05 A298 RMK A01 T01800047  RH  041%=      5-min Rain = 0
KGO1 081747Z 26021KT 18/05 A298 RMK A01 T01810048  RH  042%=      5-min Rain = 0
KGO1 081748Z 25020G25KT 18/05 A298 RMK A01 T01810048  RH  041%=      5-min Rain = 0
KGO1 081749Z 25021KT 18/05 A298 RMK A01 T01810048  RH  041%=      5-min Rain = 0
KGO1 081750Z 26018G26KT 18/05 A2979 RMK A01 T01820051  RH  042%=      5-min Rain = 0
KGO1 081751Z 26021KT 18/05 A2979 RMK A01 T01840050  RH  041%=      5-min Rain = 0
KGO1 081752Z 26018KT 18/05 A2979 RMK A01 T01840051  RH  041%=      5-min Rain = 0
KGO1 081753Z 26017G23KT 18/05 A2979 RMK A01 T01840051  RH  041%=      5-min Rain = 0
KGO1 081754Z 27020G26KT 19/05 A2979 RMK A01 T01860051  RH  041%=      5-min Rain = 0
KGO1 081755Z 26021KT 19/05 A2979 RMK A01 T01850049  RH  041%=      5-min Rain = 0
KGO1 081756Z 27020G25KT 18/05 A2979 RMK A01 T01840050  RH  041%=      5-min Rain = 0
KGO1 081757Z 27022KT 18/05 A2979 RMK A01 T01840050  RH  041%=      5-min Rain = 0
KGO1 081758Z 27018G24KT 19/05 A2979 RMK A01 T01850051  RH  041%=      5-min Rain = 0
KGO1 081759Z 27019G24KT 19/05 A2978 RMK A01 T01850051  RH  041%=      5-min Rain = 0
KGO1 081800Z 26018KT 19/05 A2978 RMK A01 T01860052  RH  041%=      5-min Rain = 0
KGO1 081801Z 26019KT 19/05 A2978 RMK A01 T01880053  RH  041%=      5-min Rain = 0
KGO1 081802Z 25019G25KT 19/05 A2978 RMK A01 T01890053  RH  041%=      5-min Rain = 0
KGO1 081803Z 25020KT 19/05 A2978 RMK A01 T01890053  RH  041%=      5-min Rain = 0
KGO1 081804Z 26017KT 19/05 A2978 RMK A01 T01890053  RH  041%=      5-min Rain = 0
KGO1 081805Z 25019G24KT 19/05 A2978 RMK A01 T01890054  RH  041%=      5-min Rain = 0
KGO1 081806Z 25021KT 19/05 A2978 RMK A01 T01890053  RH  041%=      5-min Rain = 0
KGO1 081807Z 25021KT 19/05 A2978 RMK A01 T01880052  RH  041%=      5-min Rain = 0
KGO1 081808Z 25019KT 19/05 A2978 RMK A01 T01870052  RH  041%=      5-min Rain = 0
KGO1 081809Z 26018KT 19/05 A2978 RMK A01 T01880054  RH  041%=      5-min Rain = 0
KGO1 081810Z 27019KT 19/05 A2978 RMK A01 T01890053  RH  041%=      5-min Rain = 0
KGO1 081811Z 27019KT 19/05 A2977 RMK A01 T01890052  RH  040%=      5-min Rain = 0
KGO1 081812Z 26021G26KT 19/05 A2977 RMK A01 T01890052  RH  041%=      5-min Rain = 0
KGO1 081813Z 26021KT 19/05 A2977 RMK A01 T01900052  RH  040%=      5-min Rain = 0
KGO1 081814Z 26022KT 19/05 A2977 RMK A01 T01900052  RH  040%=      5-min Rain = 0
KGO1 081815Z 26021KT 19/05 A2977 RMK A01 T01900052  RH  040%=      5-min Rain = 0
KGO1 081816Z 26018KT 19/05 A2977 RMK A01 T01890052  RH  041%=      5-min Rain = 0
KGO1 081817Z 26021KT 19/05 A2977 RMK A01 T01890053  RH  041%=      5-min Rain = 0
KGO1 081818Z 26021KT 19/05 A2977 RMK A01 T01890053  RH  041%=      5-min Rain = 0
KGO1 081819Z 27023KT 19/05 A2977 RMK A01 T01890052  RH  041%=      5-min Rain = 0
KGO1 081820Z 27020KT 19/05 A2977 RMK A01 T01890052  RH  040%=      5-min Rain = 0
KGO1 081821Z 26020KT 19/05 A2977 RMK A01 T01910053  RH  040%=      5-min Rain = 0
KGO1 081822Z 26018KT 19/05 A2977 RMK A01 T01910053  RH  040%=      5-min Rain = 0
KGO1 081823Z 26018KT 19/05 A2977 RMK A01 T01920054  RH  040%=      5-min Rain = 0
KGO1 081824Z 26016KT 19/05 A2977 RMK A01 T01940054  RH  040%=      5-min Rain = 0
KGO1 081825Z 26019G24KT 19/05 A2977 RMK A01 T01940053  RH  040%=      5-min Rain = 0
KGO1 081826Z 26019G24KT 20/05 A2977 RMK A01 T01950053  RH  039%=      5-min Rain = 0
KGO1 081827Z 26019KT 19/05 A2977 RMK A01 T01930052  RH  040%=      5-min Rain = 0
KGO1 081828Z 27019KT 19/05 A2977 RMK A01 T01930052  RH  040%=      5-min Rain = 0
KGO1 081829Z 27019KT 19/05 A2976 RMK A01 T01930053  RH  040%=      5-min Rain = 0
KGO1 081830Z 26021KT 19/05 A2976 RMK A01 T01940052  RH  039%=      5-min Rain = 0
KGO1 081831Z 26017KT 19/05 A2976 RMK A01 T01930052  RH  040%=      5-min Rain = 0
KGO1 081832Z 26020KT 19/05 A2976 RMK A01 T01920053  RH  040%=      5-min Rain = 0
KGO1 081833Z 26019G24KT 19/05 A2976 RMK A01 T01920052  RH  040%=      5-min Rain = 0
KGO1 081834Z 26018KT 19/05 A2976 RMK A01 T01910052  RH  040%=      5-min Rain = 0
KGO1 081835Z 25015G20KT 19/05 A2976 RMK A01 T01890053  RH  041%=      5-min Rain = 0
KGO1 081836Z 26019KT 19/05 A2976 RMK A01 T01900053  RH  040%=      5-min Rain = 0
KGO1 081837Z 27022KT 19/05 A2976 RMK A01 T01900053  RH  040%=      5-min Rain = 0
KGO1 081838Z 26019KT 19/05 A2976 RMK A01 T01900053  RH  041%=      5-min Rain = 0
KGO1 081839Z 25018KT 19/05 A2976 RMK A01 T01900054  RH  041%=      5-min Rain = 0
KGO1 081840Z 26016G21KT 19/05 A2976 RMK A01 T01910054  RH  041%=      5-min Rain = 0
KGO1 081841Z 26018KT 19/05 A2976 RMK A01 T01930054  RH  040%=      5-min Rain = 0
KGO1 081842Z 26020KT 19/05 A2976 RMK A01 T01930053  RH  040%=      5-min Rain = 0
KGO1 081843Z 26017G22KT 19/05 A2976 RMK A01 T01910054  RH  040%=      5-min Rain = 0
KGO1 081844Z 26018KT 19/05 A2976 RMK A01 T01920054  RH  040%=      5-min Rain = 0
KGO1 081845Z 25018KT 19/05 A2976 RMK A01 T01930054  RH  040%=      5-min Rain = 0
KGO1 081846Z 25018KT 19/05 A2976 RMK A01 T01930054  RH  040%=      5-min Rain = 0
KGO1 081847Z 26019KT 19/05 A2976 RMK A01 T01920054  RH  040%=      5-min Rain = 0
KGO1 081848Z 25018KT 19/05 A2976 RMK A01 T01900053  RH  041%=      5-min Rain = 0
KGO1 081849Z 25016KT 19/06 A2976 RMK A01 T01890055  RH  041%=      5-min Rain = 0
KGO1 081850Z 25017G22KT 19/06 A2976 RMK A01 T01910056  RH  041%=      5-min Rain = 0
KGO1 081851Z 24020KT 19/06 A2976 RMK A01 T01940057  RH  041%=      5-min Rain = 0
KGO1 081852Z 25018KT 19/06 A2976 RMK A01 T01940056  RH  040%=      5-min Rain = 0
KGO1 081853Z 25021KT 20/06 A2975 RMK A01 T01950056  RH  040%=      5-min Rain = 0
KGO1 081854Z 25016G21KT 19/06 A2975 RMK A01 T01940055  RH  040%=      5-min Rain = 0
KGO1 081855Z 25014KT 20/06 A2975 RMK A01 T01960057  RH  040%=      5-min Rain = 0
KGO1 081856Z 25017KT 20/06 A2975 RMK A01 T01990058  RH  040%=      5-min Rain = 0
KGO1 081857Z 26016KT 20/06 A2975 RMK A01 T02000057  RH  039%=      5-min Rain = 0
KGO1 081858Z 27019KT 20/06 A2975 RMK A01 T02010055  RH  038%=      5-min Rain = 0
KGO1 081859Z 26019KT 20/06 A2975 RMK A01 T02010055  RH  038%=      5-min Rain = 0
KGO1 081900Z 25020KT 20/06 A2975 RMK A01 T02020056  RH  038%=      5-min Rain = 0
KGO1 081901Z 26017KT 20/06 A2975 RMK A01 T02000055  RH  039%=      5-min Rain = 0
KGO1 081902Z 26017KT 20/06 A2975 RMK A01 T01990056  RH  039%=      5-min Rain = 0
KGO1 081903Z 25021KT 20/05 A2975 RMK A01 T01980053  RH  039%=      5-min Rain = 0
KGO1 081904Z 25021KT 20/05 A2975 RMK A01 T01970054  RH  039%=      5-min Rain = 0
KGO1 081905Z 26018G23KT 20/05 A2975 RMK A01 T01990054  RH  039%=      5-min Rain = 0
KGO1 081906Z 27020KT 20/05 A2975 RMK A01 T02010054  RH  038%=      5-min Rain = 0
KGO1 081907Z 26021KT 20/05 A2975 RMK A01 T02010054  RH  038%=      5-min Rain = 0
KGO1 081908Z 26018KT 20/06 A2975 RMK A01 T02020055  RH  038%=      5-min Rain = 0
KGO1 081909Z 27019KT 20/06 A2975 RMK A01 T02030055  RH  038%=      5-min Rain = 0
KGO1 081910Z 25021KT 20/06 A2975 RMK A01 T02030055  RH  038%=      5-min Rain = 0
KGO1 081911Z 25020G25KT 20/06 A2975 RMK A01 T02030055  RH  038%=      5-min Rain = 0
KGO1 081912Z 25024KT 20/05 A2975 RMK A01 T02030054  RH  038%=      5-min Rain = 0
KGO1 081913Z 25022KT 20/05 A2975 RMK A01 T02010052  RH  038%=      5-min Rain = 0
KGO1 081914Z 26021KT 20/05 A2974 RMK A01 T01990053  RH  038%=      5-min Rain = 0
KGO1 081915Z 26019KT 20/05 A2974 RMK A01 T01990053  RH  038%=      5-min Rain = 0
KGO1 081916Z 25019KT 20/05 A2974 RMK A01 T02000054  RH  038%=      5-min Rain = 0
KGO1 081917Z 24021G26KT 20/05 A2974 RMK A01 T02010053  RH  038%=      5-min Rain = 0
KGO1 081918Z 26023KT 20/05 A2974 RMK A01 T02000053  RH  038%=      5-min Rain = 0
KGO1 081919Z 26023KT 20/05 A2974 RMK A01 T01990053  RH  038%=      5-min Rain = 0
KGO1 081920Z 26022KT 20/05 A2974 RMK A01 T01970052  RH  039%=      5-min Rain = 0
KGO1 081921Z 25021G27KT 20/05 A2974 RMK A01 T01960052  RH  039%=      5-min Rain = 0
KGO1 081922Z 26021KT 20/05 A2974 RMK A01 T01960052  RH  039%=      5-min Rain = 0
KGO1 081923Z 26020G25KT 20/05 A2974 RMK A01 T01970053  RH  039%=      5-min Rain = 0
KGO1 081924Z 26023KT 20/05 A2974 RMK A01 T01990053  RH  038%=      5-min Rain = 0
KGO1 081925Z 26023KT 20/05 A2974 RMK A01 T01990053  RH  038%=      5-min Rain = 0
KGO1 081926Z 26025KT 20/05 A2974 RMK A01 T01990052  RH  038%=      5-min Rain = 0
KGO1 081927Z 26023KT 20/05 A2974 RMK A01 T01990052  RH  038%=      5-min Rain = 0
KGO1 081928Z 27019G25KT 20/05 A2974 RMK A01 T01990053  RH  038%=      5-min Rain = 0
KGO1 081929Z 27020KT 20/05 A2974 RMK A01 T02000053  RH  038%=      5-min Rain = 0
KGO1 081930Z 27021G26KT 20/05 A2974 RMK A01 T02010053  RH  038%=      5-min Rain = 0
KGO1 081931Z 27021KT 20/05 A2974 RMK A01 T02000053  RH  038%=      5-min Rain = 0
KGO1 081932Z 27018KT 20/05 A2974 RMK A01 T02000054  RH  038%=      5-min Rain = 0
KGO1 081933Z 27020G26KT 20/05 A2974 RMK A01 T02010054  RH  038%=      5-min Rain = 0
KGO1 081934Z 26023G28KT 20/05 A2974 RMK A01 T02020052  RH  037%=      5-min Rain = 0
KGO1 081935Z 26027KT 20/05 A2974 RMK A01 T02020051  RH  037%=      5-min Rain = 0
KGO1 081936Z 27027G32KT 20/05 A2974 RMK A01 T02010050  RH  037%=      5-min Rain = 0
KGO1 081937Z 27023KT 20/05 A2974 RMK A01 T01990050  RH  038%=      5-min Rain = 0
KGO1 081938Z 27022G28KT 20/05 A2974 RMK A01 T01980050  RH  038%=      5-min Rain = 0
KGO1 081939Z 26027KT 20/05 A2974 RMK A01 T01980050  RH  038%=      5-min Rain = 0
KGO1 081940Z 26028KT 20/05 A2974 RMK A01 T01970048  RH  037%=      5-min Rain = 0
KGO1 081941Z 27025KT 20/05 A2974 RMK A01 T01960047  RH  037%=      5-min Rain = 0
KGO1 081942Z 27024G29KT 20/05 A2974 RMK A01 T01960048  RH  038%=      5-min Rain = 0
KGO1 081943Z 27024KT 20/05 A2974 RMK A01 T01980049  RH  037%=      5-min Rain = 0
KGO1 081944Z 27022KT 20/05 A2974 RMK A01 T02010051  RH  037%=      5-min Rain = 0
KGO1 081945Z 27023KT 20/05 A2973 RMK A01 T02030052  RH  037%=      5-min Rain = 0
KGO1 081946Z 26022G28KT 21/05 A2973 RMK A01 T02060052  RH  037%=      5-min Rain = 0
KGO1 081947Z 27023KT 21/05 A2973 RMK A01 T02070052  RH  036%=      5-min Rain = 0
KGO1 081948Z 27024KT 21/05 A2973 RMK A01 T02080051  RH  036%=      5-min Rain = 0
KGO1 081949Z 27025G30KT 21/05 A2973 RMK A01 T02090049  RH  035%=      5-min Rain = 0
KGO1 081950Z 27021G26KT 21/05 A2973 RMK A01 T02090049  RH  035%=      5-min Rain = 0
KGO1 081951Z 27021G26KT 21/05 A2973 RMK A01 T02090048  RH  035%=      5-min Rain = 0
KGO1 081952Z 26022KT 21/05 A2973 RMK A01 T02100048  RH  035%=      5-min Rain = 0
KGO1 081953Z 26025KT 21/05 A2973 RMK A01 T02090048  RH  035%=      5-min Rain = 0
KGO1 081954Z 26024G29KT 21/05 A2973 RMK A01 T02070048  RH  035%=      5-min Rain = 0
KGO1 081955Z 27020G26KT 21/05 A2973 RMK A01 T02070048  RH  035%=      5-min Rain = 0
KGO1 081956Z 27024KT 21/05 A2973 RMK A01 T02080048  RH  035%=      5-min Rain = 0
KGO1 081957Z 27025KT 21/05 A2973 RMK A01 T02080048  RH  035%=      5-min Rain = 0
KGO1 081958Z 26025KT 21/05 A2973 RMK A01 T02080048  RH  035%=      5-min Rain = 0
KGO1 081959Z 26022G30KT 21/05 A2973 RMK A01 T02070048  RH  035%=      5-min Rain = 0
KGO1 082000Z 26025KT 21/05 A2973 RMK A01 T02060047  RH  035%=      5-min Rain = 0
KGO1 082001Z 26026G31KT 21/05 A2972 RMK A01 T02050046  RH  035%=      5-min Rain = 0
KGO1 082002Z 26021KT 20/05 A2972 RMK A01 T02040047  RH  036%=      5-min Rain = 0
KGO1 082003Z 26021KT 21/05 A2972 RMK A01 T02050047  RH  036%=      5-min Rain = 0
KGO1 082004Z 26021KT 21/05 A2972 RMK A01 T02060048  RH  035%=      5-min Rain = 0
KGO1 082005Z 26020KT 21/05 A2972 RMK A01 T02080049  RH  035%=      5-min Rain = 0
KGO1 082006Z 26022G27KT 21/05 A2972 RMK A01 T02100048  RH  035%=      5-min Rain = 0
KGO1 082007Z 26024KT 21/05 A2972 RMK A01 T02100045  RH  034%=      5-min Rain = 0
KGO1 082008Z 25026G33KT 21/04 A2972 RMK A01 T02090044  RH  034%=      5-min Rain = 0
KGO1 082009Z 26025G30KT 21/04 A2972 RMK A01 T02080043  RH  034%=      5-min Rain = 0
KGO1 082010Z 26019KT 21/04 A2972 RMK A01 T02070044  RH  034%=      5-min Rain = 0
KGO1 082011Z 26024KT 21/05 A2972 RMK A01 T02070045  RH  035%=      5-min Rain = 0
KGO1 082012Z 26024KT 21/04 A2972 RMK A01 T02060044  RH  034%=      5-min Rain = 0
KGO1 082013Z 26023KT 21/04 A2972 RMK A01 T02050044  RH  035%=      5-min Rain = 0
KGO1 082014Z 26022KT 21/05 A2971 RMK A01 T02050045  RH  035%=      5-min Rain = 0
KGO1 082015Z 27019KT 21/05 A2972 RMK A01 T02060046  RH  035%=      5-min Rain = 0
KGO1 082016Z 27022KT 21/05 A2972 RMK A01 T02070047  RH  035%=      5-min Rain = 0
KGO1 082017Z 27020KT 21/05 A2972 RMK A01 T02080047  RH  035%=      5-min Rain = 0
KGO1 082018Z 26022KT 21/05 A2972 RMK A01 T02080047  RH  035%=      5-min Rain = 0
KGO1 082019Z 26021G26KT 21/05 A2972 RMK A01 T02090047  RH  035%=      5-min Rain = 0
KGO1 082020Z 26023KT 21/05 A2972 RMK A01 T02090048  RH  035%=      5-min Rain = 0
KGO1 082021Z 27021G27KT 21/05 A2972 RMK A01 T02090048  RH  035%=      5-min Rain = 0
KGO1 082022Z 27014KT 21/05 A2972 RMK A01 T02090048  RH  035%=      5-min Rain = 0
KGO1 082023Z 27017KT 21/05 A2972 RMK A01 T02110050  RH  035%=      5-min Rain = 0
KGO1 082024Z 27019KT 21/05 A2972 RMK A01 T02120049  RH  034%=      5-min Rain = 0
KGO1 082025Z 27022G28KT 21/05 A2972 RMK A01 T02120048  RH  034%=      5-min Rain = 0
KGO1 082026Z 27020G25KT 21/05 A2972 RMK A01 T02110047  RH  034%=      5-min Rain = 0
KGO1 082027Z 27021KT 21/05 A2971 RMK A01 T02100048  RH  035%=      5-min Rain = 0
KGO1 082028Z 26022KT 21/05 A2971 RMK A01 T02100048  RH  034%=      5-min Rain = 0
KGO1 082029Z 27023G29KT 21/05 A2971 RMK A01 T02100046  RH  034%=      5-min Rain = 0
KGO1 082030Z 27024KT 21/05 A2971 RMK A01 T02100046  RH  034%=      5-min Rain = 0
KGO1 082031Z 27024G29KT 21/04 A2971 RMK A01 T02100044  RH  034%=      5-min Rain = 0
KGO1 082032Z 27022G27KT 21/05 A2971 RMK A01 T02100045  RH  034%=      5-min Rain = 0
KGO1 082033Z 26023G29KT 21/05 A2971 RMK A01 T02100046  RH  034%=      5-min Rain = 0
KGO1 082034Z 26027KT 21/04 A2971 RMK A01 T02110044  RH  034%=      5-min Rain = 0
KGO1 082035Z 26026KT 21/04 A297 RMK A01 T02110044  RH  034%=      5-min Rain = 0
KGO1 082036Z 26025G30KT 21/04 A297 RMK A01 T02110044  RH  034%=      5-min Rain = 0
KGO1 082037Z 27024KT 21/04 A297 RMK A01 T02110044  RH  033%=      5-min Rain = 0
KGO1 082038Z 26024KT 21/05 A297 RMK A01 T02110045  RH  034%=      5-min Rain = 0
KGO1 082039Z 26023G30KT 21/05 A297 RMK A01 T02120045  RH  033%=      5-min Rain = 0
KGO1 082040Z 26027KT 21/04 A297 RMK A01 T02120044  RH  033%=      5-min Rain = 0
KGO1 082041Z 26023G29KT 21/04 A297 RMK A01 T02120044  RH  033%=      5-min Rain = 0
KGO1 082042Z 26019KT 21/04 A297 RMK A01 T02120044  RH  033%=      5-min Rain = 0
KGO1 082043Z 26022KT 21/04 A297 RMK A01 T02130044  RH  033%=      5-min Rain = 0
KGO1 082044Z 26020G26KT 21/05 A297 RMK A01 T02140045  RH  033%=      5-min Rain = 0
KGO1 082045Z 27023KT 21/04 A297 RMK A01 T02140044  RH  033%=      5-min Rain = 0
KGO1 082046Z 27024KT 21/04 A297 RMK A01 T02140043  RH  033%=      5-min Rain = 0
KGO1 082047Z 27020KT 21/04 A297 RMK A01 T02140043  RH  033%=      5-min Rain = 0
KGO1 082048Z 26024KT 21/04 A297 RMK A01 T02140043  RH  033%=      5-min Rain = 0
KGO1 082049Z 26025KT 22/04 A297 RMK A01 T02150041  RH  032%=      5-min Rain = 0
KGO1 082050Z 26025KT 21/04 A297 RMK A01 T02140041  RH  032%=      5-min Rain = 0
KGO1 082051Z 27019KT 21/04 A297 RMK A01 T02140042  RH  032%=      5-min Rain = 0
KGO1 082052Z 27021KT 22/04 A297 RMK A01 T02150043  RH  032%=      5-min Rain = 0
KGO1 082053Z 27021KT 22/04 A297 RMK A01 T02160042  RH  032%=      5-min Rain = 0
KGO1 082054Z 27024KT 22/04 A297 RMK A01 T02160041  RH  032%=      5-min Rain = 0
KGO1 082055Z 27026KT 22/04 A297 RMK A01 T02160041  RH  032%=      5-min Rain = 0
KGO1 082056Z 27023KT 22/04 A297 RMK A01 T02150041  RH  032%=      5-min Rain = 0
KGO1 082057Z 26025G30KT 22/04 A297 RMK A01 T02150042  RH  032%=      5-min Rain = 0
KGO1 082058Z 26023G28KT 21/04 A297 RMK A01 T02140041  RH  032%=      5-min Rain = 0
KGO1 082059Z 26021G26KT 21/04 A297 RMK A01 T02140042  RH  033%=      5-min Rain = 0
KGO1 082100Z 26020KT 21/04 A297 RMK A01 T02130042  RH  033%=      5-min Rain = 0
KGO1 082101Z 26024G30KT 21/04 A297 RMK A01 T02140042  RH  032%=      5-min Rain = 0
KGO1 082102Z 27026KT 21/04 A297 RMK A01 T02140040  RH  032%=      5-min Rain = 0
KGO1 082103Z 26022KT 21/04 A297 RMK A01 T02140041  RH  032%=      5-min Rain = 0
KGO1 082104Z 26023KT 21/04 A297 RMK A01 T02140041  RH  032%=      5-min Rain = 0
KGO1 082105Z 26022G28KT 21/04 A297 RMK A01 T02130042  RH  032%=      5-min Rain = 0
KGO1 082106Z 26023G28KT 21/04 A297 RMK A01 T02140042  RH  032%=      5-min Rain = 0
KGO1 082107Z 25025G33KT 21/04 A297 RMK A01 T02140040  RH  032%=      5-min Rain = 0
KGO1 082108Z 25026KT 21/04 A297 RMK A01 T02130039  RH  032%=      5-min Rain = 0
KGO1 082109Z 26024G29KT 21/04 A297 RMK A01 T02130039  RH  032%=      5-min Rain = 0
KGO1 082110Z 26022G27KT 21/04 A297 RMK A01 T02120039  RH  032%=      5-min Rain = 0
KGO1 082111Z 25023G29KT 21/04 A297 RMK A01 T02120040  RH  032%=      5-min Rain = 0
KGO1 082112Z 26023KT 21/04 A297 RMK A01 T02110040  RH  032%=      5-min Rain = 0
KGO1 082113Z 26024G29KT 21/04 A297 RMK A01 T02110040  RH  033%=      5-min Rain = 0
KGO1 082114Z 26022G28KT 21/04 A297 RMK A01 T02110041  RH  033%=      5-min Rain = 0
KGO1 082115Z 26022G27KT 21/04 A297 RMK A01 T02110040  RH  033%=      5-min Rain = 0
KGO1 082116Z 26021KT 21/04 A297 RMK A01 T02100040  RH  033%=      5-min Rain = 0
KGO1 082117Z 26020KT 21/04 A297 RMK A01 T02100040  RH  033%=      5-min Rain = 0
KGO1 082118Z 26018KT 21/04 A297 RMK A01 T02100041  RH  033%=      5-min Rain = 0
KGO1 082119Z 26016KT 21/04 A297 RMK A01 T02100041  RH  033%=      5-min Rain = 0
KGO1 082120Z 26020G25KT 21/04 A297 RMK A01 T02100040  RH  033%=      5-min Rain = 0
KGO1 082121Z 27020KT 21/04 A297 RMK A01 T02100040  RH  033%=      5-min Rain = 0
KGO1 082122Z 27022KT 21/04 A297 RMK A01 T02110040  RH  033%=      5-min Rain = 0
KGO1 082123Z 27020KT 21/04 A297 RMK A01 T02120040  RH  032%=      5-min Rain = 0
KGO1 082124Z 27019G24KT 21/04 A297 RMK A01 T02130040  RH  032%=      5-min Rain = 0
KGO1 082125Z 27017KT 21/04 A297 RMK A01 T02130041  RH  032%=      5-min Rain = 0
KGO1 082126Z 27018KT 21/04 A297 RMK A01 T02140041  RH  032%=      5-min Rain = 0
KGO1 082127Z 27018KT 21/04 A297 RMK A01 T02140041  RH  032%=      5-min Rain = 0
KGO1 082128Z 26018G24KT 21/04 A297 RMK A01 T02130041  RH  032%=      5-min Rain = 0
KGO1 082129Z 26022KT 21/04 A297 RMK A01 T02130040  RH  032%=      5-min Rain = 0
KGO1 082130Z 26022KT 21/04 A297 RMK A01 T02120039  RH  032%=      5-min Rain = 0
KGO1 082131Z 25021G27KT 21/04 A297 RMK A01 T02120040  RH  032%=      5-min Rain = 0
KGO1 082132Z 25022KT 21/04 A297 RMK A01 T02120040  RH  032%=      5-min Rain = 0
KGO1 082133Z 25018KT 21/04 A297 RMK A01 T02120040  RH  032%=      5-min Rain = 0
KGO1 082134Z 25020KT 21/04 A297 RMK A01 T02110041  RH  033%=      5-min Rain = 0
KGO1 082135Z 25019KT 21/04 A297 RMK A01 T02110042  RH  033%=      5-min Rain = 0
KGO1 082136Z 25020KT 21/04 A297 RMK A01 T02110043  RH  033%=      5-min Rain = 0
KGO1 082137Z 25018KT 21/04 A297 RMK A01 T02100043  RH  033%=      5-min Rain = 0
KGO1 082138Z 25015KT 21/05 A297 RMK A01 T02100045  RH  034%=      5-min Rain = 0
KGO1 082139Z 25015KT 21/05 A297 RMK A01 T02110045  RH  034%=      5-min Rain = 0
KGO1 082140Z 26018KT 21/05 A297 RMK A01 T02110045  RH  034%=      5-min Rain = 0
KGO1 082141Z 26020KT 21/04 A2969 RMK A01 T02110043  RH  033%=      5-min Rain = 0
KGO1 082142Z 25017KT 21/04 A297 RMK A01 T02110044  RH  033%=      5-min Rain = 0
KGO1 082143Z 26020KT 21/04 A297 RMK A01 T02110044  RH  034%=      5-min Rain = 0
KGO1 082144Z 25019G24KT 21/04 A2969 RMK A01 T02100043  RH  033%=      5-min Rain = 0
KGO1 082145Z 25018KT 21/04 A297 RMK A01 T02100043  RH  033%=      5-min Rain = 0
KGO1 082146Z 25019KT 21/04 A297 RMK A01 T02090043  RH  034%=      5-min Rain = 0
KGO1 082147Z 25019KT 21/04 A297 RMK A01 T02090044  RH  034%=      5-min Rain = 0
KGO1 082148Z 25018KT 21/04 A297 RMK A01 T02090044  RH  034%=      5-min Rain = 0
KGO1 082149Z 25018G23KT 21/04 A297 RMK A01 T02090044  RH  034%=      5-min Rain = 0
KGO1 082150Z 25020KT 21/04 A297 RMK A01 T02090044  RH  034%=      5-min Rain = 0
KGO1 082151Z 25020KT 21/04 A297 RMK A01 T02100044  RH  034%=      5-min Rain = 0
KGO1 082152Z 25022KT 21/04 A297 RMK A01 T02100044  RH  034%=      5-min Rain = 0
KGO1 082153Z 26020KT 21/04 A297 RMK A01 T02110044  RH  033%=      5-min Rain = 0
KGO1 082154Z 25020KT 21/04 A297 RMK A01 T02120044  RH  033%=      5-min Rain = 0
KGO1 082155Z 25019KT 21/04 A297 RMK A01 T02120044  RH  033%=      5-min Rain = 0
KGO1 082156Z 25020KT 21/04 A2969 RMK A01 T02120043  RH  033%=      5-min Rain = 0
KGO1 082157Z 25019KT 21/04 A2969 RMK A01 T02120043  RH  033%=      5-min Rain = 0
KGO1 082158Z 26016KT 21/04 A2969 RMK A01 T02130044  RH  033%=      5-min Rain = 0
KGO1 082159Z 25016G22KT 21/04 A297 RMK A01 T02130044  RH  033%=      5-min Rain = 0
KGO1 082200Z 26019KT 21/04 A2969 RMK A01 T02130044  RH  033%=      5-min Rain = 0
KGO1 082201Z 26020KT 21/04 A2969 RMK A01 T02120043  RH  033%=      5-min Rain = 0
KGO1 082202Z 25018G25KT 21/04 A2969 RMK A01 T02120043  RH  033%=      5-min Rain = 0
KGO1 082203Z 26024KT 21/04 A2969 RMK A01 T02120041  RH  033%=      5-min Rain = 0
KGO1 082204Z 26021KT 21/04 A2969 RMK A01 T02110040  RH  033%=      5-min Rain = 0
KGO1 082205Z 26021KT 21/04 A2969 RMK A01 T02110041  RH  033%=      5-min Rain = 0
KGO1 082206Z 25019KT 21/04 A2969 RMK A01 T02110041  RH  033%=      5-min Rain = 0
KGO1 082207Z 25016G21KT 21/04 A2969 RMK A01 T02100043  RH  033%=      5-min Rain = 0
KGO1 082208Z 25023KT 21/04 A2969 RMK A01 T02100043  RH  033%=      5-min Rain = 0
KGO1 082209Z 26026G32KT 21/04 A2969 RMK A01 T02100043  RH  033%=      5-min Rain = 0
KGO1 082210Z 25028KT 21/04 A2969 RMK A01 T02090041  RH  033%=      5-min Rain = 0
KGO1 082211Z 25024KT 21/04 A2969 RMK A01 T02080040  RH  033%=      5-min Rain = 0
KGO1 082212Z 25028KT 21/04 A2969 RMK A01 T02070040  RH  033%=      5-min Rain = 0
KGO1 082213Z 25030KT 21/04 A2969 RMK A01 T02060038  RH  033%=      5-min Rain = 0
KGO1 082214Z 26029KT 21/04 A2969 RMK A01 T02060038  RH  033%=      5-min Rain = 0
KGO1 082215Z 25026G31KT 21/04 A2969 RMK A01 T02050038  RH  033%=      5-min Rain = 0
KGO1 082216Z 26025KT 20/04 A2969 RMK A01 T02040038  RH  033%=      5-min Rain = 0
KGO1 082217Z 26023G28KT 20/04 A297 RMK A01 T02040038  RH  034%=      5-min Rain = 0
KGO1 082218Z 26027G32KT 20/04 A2969 RMK A01 T02030037  RH  034%=      5-min Rain = 0
KGO1 082219Z 26024KT 20/04 A2969 RMK A01 T02030037  RH  033%=      5-min Rain = 0
KGO1 082220Z 26024G31KT 20/04 A2969 RMK A01 T02020036  RH  034%=      5-min Rain = 0
KGO1 082221Z 25026G32KT 20/04 A2969 RMK A01 T02010036  RH  034%=      5-min Rain = 0
KGO1 082222Z 26023G29KT 20/04 A2969 RMK A01 T02010035  RH  033%=      5-min Rain = 0
KGO1 082223Z 25022KT 20/04 A2969 RMK A01 T02010037  RH  034%=      5-min Rain = 0
KGO1 082224Z 25021KT 20/04 A2969 RMK A01 T02010037  RH  034%=      5-min Rain = 0
KGO1 082225Z 25021KT 20/04 A2969 RMK A01 T02010038  RH  034%=      5-min Rain = 0
KGO1 082226Z 25024KT 20/04 A2969 RMK A01 T02010038  RH  034%=      5-min Rain = 0
KGO1 082227Z 26026KT 20/04 A297 RMK A01 T02010038  RH  034%=      5-min Rain = 0
KGO1 082228Z 26027KT 20/04 A297 RMK A01 T02010038  RH  034%=      5-min Rain = 0
KGO1 082229Z 26023KT 20/04 A297 RMK A01 T02020038  RH  034%=      5-min Rain = 0
KGO1 082230Z 26025KT 20/04 A2969 RMK A01 T02030039  RH  034%=      5-min Rain = 0
KGO1 082231Z 26024KT 20/04 A297 RMK A01 T02020039  RH  034%=      5-min Rain = 0
KGO1 082232Z 25022KT 20/04 A297 RMK A01 T02020040  RH  034%=      5-min Rain = 0
KGO1 082233Z 26023KT 20/04 A2969 RMK A01 T02020040  RH  034%=      5-min Rain = 0
KGO1 082234Z 26023KT 20/04 A297 RMK A01 T02030041  RH  034%=      5-min Rain = 0
KGO1 082235Z 25017KT 20/04 A297 RMK A01 T02030042  RH  035%=      5-min Rain = 0
KGO1 082236Z 24023G29KT 20/04 A2969 RMK A01 T02030043  RH  035%=      5-min Rain = 0
KGO1 082237Z 25025KT 20/04 A2969 RMK A01 T02020042  RH  035%=      5-min Rain = 0
KGO1 082238Z 25025G30KT 20/04 A297 RMK A01 T02020042  RH  035%=      5-min Rain = 0
KGO1 082239Z 25029KT 20/04 A2969 RMK A01 T02030041  RH  035%=      5-min Rain = 0
KGO1 082240Z 26030KT 20/04 A297 RMK A01 T02020041  RH  034%=      5-min Rain = 0
KGO1 082241Z 26028G33KT 20/04 A297 RMK A01 T02030041  RH  034%=      5-min Rain = 0
KGO1 082242Z 25028G33KT 20/04 A297 RMK A01 T02030040  RH  034%=      5-min Rain = 0
KGO1 082243Z 25023KT 20/04 A297 RMK A01 T02020041  RH  034%=      5-min Rain = 0
KGO1 082244Z 26023G29KT 20/04 A297 RMK A01 T02010041  RH  035%=      5-min Rain = 0
KGO1 082245Z 26020G27KT 20/04 A297 RMK A01 T02010040  RH  035%=      5-min Rain = 0
KGO1 082246Z 25021KT 20/04 A297 RMK A01 T02000041  RH  035%=      5-min Rain = 0
KGO1 082247Z 25026G31KT 20/04 A297 RMK A01 T01990041  RH  035%=      5-min Rain = 0
KGO1 082248Z 26026G31KT 20/04 A297 RMK A01 T01990040  RH  035%=      5-min Rain = 0
KGO1 082249Z 25025G31KT 20/04 A2971 RMK A01 T01980040  RH  035%=      5-min Rain = 0
KGO1 082250Z 25028KT 20/04 A2971 RMK A01 T01970040  RH  035%=      5-min Rain = 0
KGO1 082251Z 26028G34KT 20/04 A2971 RMK A01 T01960039  RH  035%=      5-min Rain = 0
KGO1 082252Z 26027KT 20/04 A2971 RMK A01 T01950039  RH  036%=      5-min Rain = 0
KGO1 082253Z 26027G32KT 20/04 A2971 RMK A01 T01950039  RH  036%=      5-min Rain = 0
KGO1 082254Z 25027KT 20/04 A2971 RMK A01 T01950039  RH  036%=      5-min Rain = 0
KGO1 082255Z 25025G31KT 19/04 A2971 RMK A01 T01940039  RH  036%=      5-min Rain = 0
KGO1 082256Z 26026KT 19/04 A2971 RMK A01 T01930038  RH  036%=      5-min Rain = 0
KGO1 082257Z 26026G31KT 19/04 A297 RMK A01 T01930038  RH  036%=      5-min Rain = 0
KGO1 082258Z 26025KT 19/04 A297 RMK A01 T01930038  RH  036%=      5-min Rain = 0
KGO1 082259Z 26025G30KT 19/04 A297 RMK A01 T01920038  RH  036%=      5-min Rain = 0
KGO1 082300Z 25024KT 19/04 A297 RMK A01 T01920038  RH  036%=      5-min Rain = 0
KGO1 082301Z 25023KT 19/04 A297 RMK A01 T01910038  RH  036%=      5-min Rain = 0
KGO1 082302Z 26026G31KT 19/04 A297 RMK A01 T01910038  RH  036%=      5-min Rain = 0
KGO1 082303Z 26026KT 19/04 A297 RMK A01 T01900038  RH  036%=      5-min Rain = 0
KGO1 082304Z 25024KT 19/04 A297 RMK A01 T01910038  RH  036%=      5-min Rain = 0
KGO1 082305Z 25024KT 19/04 A297 RMK A01 T01900038  RH  037%=      5-min Rain = 0
KGO1 082306Z 25023KT 19/04 A2971 RMK A01 T01890038  RH  037%=      5-min Rain = 0
KGO1 082307Z 26022KT 19/04 A2971 RMK A01 T01880039  RH  037%=      5-min Rain = 0
KGO1 082308Z 25020G26KT 19/04 A2971 RMK A01 T01880039  RH  037%=      5-min Rain = 0
KGO1 082309Z 25025G32KT 19/04 A2971 RMK A01 T01870039  RH  037%=      5-min Rain = 0
KGO1 082310Z 25027G32KT 19/04 A2971 RMK A01 T01880040  RH  037%=      5-min Rain = 0
KGO1 082311Z 26023G29KT 19/04 A2971 RMK A01 T01890040  RH  037%=      5-min Rain = 0
KGO1 082312Z 26025G30KT 19/04 A2971 RMK A01 T01890040  RH  037%=      5-min Rain = 0
KGO1 082313Z 25024KT 19/04 A2971 RMK A01 T01880040  RH  037%=      5-min Rain = 0
KGO1 082314Z 25026KT 19/04 A2971 RMK A01 T01880040  RH  037%=      5-min Rain = 0
KGO1 082315Z 25021KT 19/04 A2971 RMK A01 T01880040  RH  038%=      5-min Rain = 0
KGO1 082316Z 25026G31KT 19/04 A2971 RMK A01 T01870040  RH  038%=      5-min Rain = 0
KGO1 082317Z 25026KT 19/04 A2971 RMK A01 T01870040  RH  038%=      5-min Rain = 0
KGO1 082318Z 25024KT 19/04 A2971 RMK A01 T01870039  RH  038%=      5-min Rain = 0
KGO1 082319Z 25025G32KT 19/04 A2971 RMK A01 T01870039  RH  038%=      5-min Rain = 0
KGO1 082320Z 25025KT 19/04 A2971 RMK A01 T01870039  RH  038%=      5-min Rain = 0
KGO1 082321Z 25027KT 19/04 A2971 RMK A01 T01860039  RH  038%=      5-min Rain = 0
KGO1 082322Z 25028G35KT 19/04 A2971 RMK A01 T01860038  RH  037%=      5-min Rain = 0
KGO1 082323Z 25025G31KT 19/04 A2971 RMK A01 T01870038  RH  037%=      5-min Rain = 0
KGO1 082324Z 25026KT 19/04 A2971 RMK A01 T01870038  RH  037%=      5-min Rain = 0
KGO1 082325Z 25021G26KT 19/04 A2971 RMK A01 T01870038  RH  037%=      5-min Rain = 0
KGO1 082326Z 25023KT 19/04 A2971 RMK A01 T01850038  RH  038%=      5-min Rain = 0
KGO1 082327Z 25025G30KT 19/04 A297 RMK A01 T01850038  RH  038%=      5-min Rain = 0
KGO1 082328Z 25021G27KT 19/04 A2971 RMK A01 T01850038  RH  038%=      5-min Rain = 0
KGO1 082329Z 25021KT 18/04 A2971 RMK A01 T01840038  RH  038%=      5-min Rain = 0
KGO1 082330Z 25019G27KT 18/04 A2971 RMK A01 T01830038  RH  038%=      5-min Rain = 0
KGO1 082331Z 25022KT 18/04 A2971 RMK A01 T01820038  RH  038%=      5-min Rain = 0
KGO1 082332Z 25023G29KT 18/04 A2971 RMK A01 T01820038  RH  038%=      5-min Rain = 0
KGO1 082333Z 25022KT 18/04 A2971 RMK A01 T01820037  RH  038%=      5-min Rain = 0
KGO1 082334Z 25019KT 18/04 A2971 RMK A01 T01820038  RH  038%=      5-min Rain = 0
KGO1 082335Z 25020G26KT 18/04 A2971 RMK A01 T01810038  RH  039%=      5-min Rain = 0
KGO1 082336Z 25019KT 18/04 A2971 RMK A01 T01800038  RH  039%=      5-min Rain = 0
KGO1 082337Z 25021KT 18/04 A2971 RMK A01 T01800038  RH  039%=      5-min Rain = 0
KGO1 082338Z 25019KT 18/04 A2971 RMK A01 T01800038  RH  039%=      5-min Rain = 0
KGO1 082339Z 25017KT 18/04 A2971 RMK A01 T01790039  RH  039%=      5-min Rain = 0
KGO1 082340Z 25018KT 18/04 A2971 RMK A01 T01780039  RH  040%=      5-min Rain = 0
KGO1 082341Z 25018KT 18/04 A2971 RMK A01 T01770040  RH  040%=      5-min Rain = 0
KGO1 082342Z 25017KT 18/04 A2971 RMK A01 T01770040  RH  040%=      5-min Rain = 0
KGO1 082343Z 25018KT 18/04 A2971 RMK A01 T01760040  RH  040%=      5-min Rain = 0
KGO1 082344Z 26020KT 18/04 A2971 RMK A01 T01760040  RH  040%=      5-min Rain = 0
KGO1 082345Z 25019KT 18/04 A2971 RMK A01 T01770040  RH  040%=      5-min Rain = 0
KGO1 082346Z 25021KT 18/04 A297 RMK A01 T01770040  RH  040%=      5-min Rain = 0
KGO1 082347Z 25020KT 18/04 A297 RMK A01 T01780040  RH  040%=      5-min Rain = 0
KGO1 082348Z 25020KT 18/04 A297 RMK A01 T01780041  RH  040%=      5-min Rain = 0
KGO1 082349Z 26018G23KT 18/04 A2971 RMK A01 T01780040  RH  040%=      5-min Rain = 0
KGO1 082350Z 25020KT 18/04 A2971 RMK A01 T01760040  RH  040%=      5-min Rain = 0
KGO1 082351Z 25024KT 18/04 A2971 RMK A01 T01770040  RH  040%=      5-min Rain = 0
KGO1 082352Z 25020G25KT 18/04 A2971 RMK A01 T01770040  RH  040%=      5-min Rain = 0
KGO1 082353Z 26023KT 18/04 A2971 RMK A01 T01770040  RH  040%=      5-min Rain = 0
KGO1 082354Z 25021KT 18/04 A2971 RMK A01 T01770040  RH  040%=      5-min Rain = 0
KGO1 082355Z 26017KT 18/04 A2971 RMK A01 T01760040  RH  040%=      5-min Rain = 0
KGO1 082356Z 25019KT 18/04 A2971 RMK A01 T01750040  RH  041%=      5-min Rain = 0
KGO1 082357Z 25018G24KT 17/04 A2971 RMK A01 T01740040  RH  041%=      5-min Rain = 0
KGO1 082358Z 25019KT 17/04 A2971 RMK A01 T01730040  RH  041%=      5-min Rain = 0
KGO1 082359Z 25022G27KT 17/04 A2971 RMK A01 T01730039  RH  041%=      5-min Rain = 0
KGO1 090000Z 25018KT 18/04 A2971 RMK A01 T01750040  RH  041%=      5-min Rain = 0
KGO1 090001Z 25018KT 17/04 A2971 RMK A01 T01740040  RH  041%=      5-min Rain = 0
KGO1 090002Z 25020KT 17/04 A2971 RMK A01 T01730039  RH  041%=      5-min Rain = 0
KGO1 090003Z 25021KT 17/04 A2971 RMK A01 T01730039  RH  041%=      5-min Rain = 0
KGO1 090004Z 25019KT 17/04 A2971 RMK A01 T01740039  RH  041%=      5-min Rain = 0
KGO1 090005Z 26019KT 17/04 A2971 RMK A01 T01740040  RH  041%=      5-min Rain = 0
KGO1 090006Z 25021KT 17/04 A2971 RMK A01 T01730039  RH  041%=      5-min Rain = 0
KGO1 090007Z 25020G25KT 17/04 A2971 RMK A01 T01730039  RH  041%=      5-min Rain = 0
KGO1 090008Z 26024KT 17/04 A2971 RMK A01 T01730039  RH  041%=      5-min Rain = 0
KGO1 090009Z 26019KT 17/04 A2971 RMK A01 T01740039  RH  041%=      5-min Rain = 0
KGO1 090010Z 25022KT 17/04 A2971 RMK A01 T01740039  RH  041%=      5-min Rain = 0
KGO1 090011Z 26020G26KT 17/04 A2971 RMK A01 T01730039  RH  041%=      5-min Rain = 0
KGO1 090012Z 25023G29KT 17/04 A2971 RMK A01 T01730039  RH  041%=      5-min Rain = 0
KGO1 090013Z 25021G26KT 17/04 A2971 RMK A01 T01730039  RH  041%=      5-min Rain = 0
KGO1 090014Z 25020G25KT 17/04 A2971 RMK A01 T01730039  RH  041%=      5-min Rain = 0
KGO1 090015Z 25020KT 17/04 A2971 RMK A01 T01730039  RH  041%=      5-min Rain = 0
KGO1 090016Z 25019G27KT 17/04 A2971 RMK A01 T01720039  RH  041%=      5-min Rain = 0
KGO1 090017Z 25020KT 17/04 A2971 RMK A01 T01710038  RH  041%=      5-min Rain = 0
KGO1 090018Z 25020KT 17/04 A2971 RMK A01 T01710038  RH  041%=      5-min Rain = 0
KGO1 090019Z 25019KT 17/04 A2971 RMK A01 T01710038  RH  041%=      5-min Rain = 0
KGO1 090020Z 25022KT 17/04 A2971 RMK A01 T01700038  RH  041%=      5-min Rain = 0
KGO1 090021Z 25019KT 17/04 A2971 RMK A01 T01720039  RH  041%=      5-min Rain = 0
KGO1 090022Z 26019KT 17/04 A2971 RMK A01 T01710039  RH  041%=      5-min Rain = 0
KGO1 090023Z 25023KT 17/04 A2971 RMK A01 T01700038  RH  041%=      5-min Rain = 0
KGO1 090024Z 26022G28KT 17/04 A2971 RMK A01 T01710039  RH  041%=      5-min Rain = 0
KGO1 090025Z 25021G26KT 17/04 A2971 RMK A01 T01710039  RH  041%=      5-min Rain = 0
KGO1 090026Z 26020KT 17/04 A2971 RMK A01 T01700038  RH  041%=      5-min Rain = 0
KGO1 090027Z 25021KT 17/04 A2971 RMK A01 T01700038  RH  041%=      5-min Rain = 0
KGO1 090028Z 26022KT 17/04 A2971 RMK A01 T01700037  RH  041%=      5-min Rain = 0
KGO1 090029Z 26023KT 17/04 A2971 RMK A01 T01710037  RH  041%=      5-min Rain = 0
KGO1 090030Z 26021KT 17/04 A2971 RMK A01 T01710037  RH  041%=      5-min Rain = 0
KGO1 090031Z 26020G27KT 17/04 A2971 RMK A01 T01700037  RH  041%=      5-min Rain = 0
KGO1 090032Z 26021KT 17/04 A2971 RMK A01 T01700037  RH  041%=      5-min Rain = 0
KGO1 090033Z 25020G25KT 17/04 A2971 RMK A01 T01690037  RH  041%=      5-min Rain = 0
KGO1 090034Z 26020KT 17/04 A2971 RMK A01 T01690037  RH  041%=      5-min Rain = 0
KGO1 090035Z 25019KT 17/04 A2971 RMK A01 T01680037  RH  042%=      5-min Rain = 0
KGO1 090036Z 26020KT 17/04 A2971 RMK A01 T01680037  RH  042%=      5-min Rain = 0
KGO1 090037Z 25021KT 17/04 A2971 RMK A01 T01680037  RH  042%=      5-min Rain = 0
KGO1 090038Z 26021KT 17/04 A2972 RMK A01 T01680037  RH  042%=      5-min Rain = 0
KGO1 090039Z 25021KT 17/04 A2972 RMK A01 T01680037  RH  042%=      5-min Rain = 0
KGO1 090040Z 25022KT 17/04 A2971 RMK A01 T01680037  RH  042%=      5-min Rain = 0
KGO1 090041Z 26021KT 17/04 A2971 RMK A01 T01680037  RH  042%=      5-min Rain = 0
KGO1 090042Z 25023KT 17/04 A2971 RMK A01 T01680037  RH  042%=      5-min Rain = 0
KGO1 090043Z 25021G26KT 17/04 A2971 RMK A01 T01680037  RH  042%=      5-min Rain = 0
KGO1 090044Z 25021KT 17/04 A2971 RMK A01 T01690037  RH  042%=      5-min Rain = 0
KGO1 090045Z 25023G28KT 17/04 A2971 RMK A01 T01690037  RH  042%=      5-min Rain = 0
KGO1 090046Z 25024G29KT 17/04 A2971 RMK A01 T01680037  RH  042%=      5-min Rain = 0
KGO1 090047Z 25025G30KT 17/04 A2971 RMK A01 T01690038  RH  042%=      5-min Rain = 0
KGO1 090048Z 25025G30KT 17/04 A2971 RMK A01 T01690037  RH  041%=      5-min Rain = 0
KGO1 090049Z 25024KT 17/04 A2971 RMK A01 T01690038  RH  041%=      5-min Rain = 0
KGO1 090050Z 25024G29KT 17/04 A2971 RMK A01 T01690037  RH  042%=      5-min Rain = 0
KGO1 090051Z 25026G34KT 17/04 A2971 RMK A01 T01680037  RH  042%=      5-min Rain = 0
KGO1 090052Z 25025G31KT 17/04 A2971 RMK A01 T01690037  RH  041%=      5-min Rain = 0
KGO1 090053Z 25023KT 17/04 A2971 RMK A01 T01690037  RH  042%=      5-min Rain = 0
KGO1 090054Z 25023G30KT 17/04 A2972 RMK A01 T01670037  RH  042%=      5-min Rain = 0
KGO1 090055Z 25022KT 17/04 A2971 RMK A01 T01660037  RH  042%=      5-min Rain = 0
KGO1 090056Z 25021G26KT 17/04 A2971 RMK A01 T01660037  RH  042%=      5-min Rain = 0
KGO1 090057Z 25021G26KT 17/04 A2971 RMK A01 T01660037  RH  042%=      5-min Rain = 0
KGO1 090058Z 26023G29KT 17/04 A2971 RMK A01 T01660037  RH  042%=      5-min Rain = 0
KGO1 090059Z 26020KT 17/04 A2971 RMK A01 T01660036  RH  042%=      5-min Rain = 0
KGO1 090100Z 26021KT 17/04 A2971 RMK A01 T01660036  RH  042%=      5-min Rain = 0
KGO1 090101Z 26024KT 17/04 A2971 RMK A01 T01660036  RH  042%=      5-min Rain = 0
KGO1 090102Z 26022KT 17/04 A2971 RMK A01 T01660036  RH  042%=      5-min Rain = 0
KGO1 090103Z 25023G29KT 17/04 A2971 RMK A01 T01650036  RH  042%=      5-min Rain = 0
KGO1 090104Z 26026KT 17/04 A2971 RMK A01 T01650035  RH  042%=      5-min Rain = 0
KGO1 090105Z 25024KT 17/04 A2971 RMK A01 T01660036  RH  042%=      5-min Rain = 0
KGO1 090106Z 26025G30KT 17/04 A2971 RMK A01 T01670036  RH  042%=      5-min Rain = 0
KGO1 090107Z 25025KT 17/04 A2971 RMK A01 T01670036  RH  042%=      5-min Rain = 0
KGO1 090108Z 25025G32KT 17/04 A2971 RMK A01 T01670036  RH  042%=      5-min Rain = 0
KGO1 090109Z 26025KT 17/04 A2971 RMK A01 T01670036  RH  042%=      5-min Rain = 0
KGO1 090110Z 25025G30KT 17/04 A2971 RMK A01 T01670036  RH  042%=      5-min Rain = 0
KGO1 090111Z 25022G27KT 17/04 A2971 RMK A01 T01660036  RH  042%=      5-min Rain = 0
KGO1 090112Z 25022KT 17/04 A2971 RMK A01 T01650036  RH  042%=      5-min Rain = 0
KGO1 090113Z 25024KT 16/04 A2971 RMK A01 T01640036  RH  042%=      5-min Rain = 0
KGO1 090114Z 25024KT 17/04 A2971 RMK A01 T01650036  RH  042%=      5-min Rain = 0
KGO1 090115Z 25021KT 17/04 A2972 RMK A01 T01650036  RH  042%=      5-min Rain = 0
KGO1 090116Z 25022KT 17/04 A2972 RMK A01 T01650036  RH  042%=      5-min Rain = 0
KGO1 090117Z 25022KT 16/04 A2972 RMK A01 T01640036  RH  042%=      5-min Rain = 0
KGO1 090118Z 25025KT 16/04 A2972 RMK A01 T01640036  RH  043%=      5-min Rain = 0
KGO1 090119Z 25024KT 16/04 A2972 RMK A01 T01640037  RH  043%=      5-min Rain = 0
KGO1 090120Z 25024G30KT 16/04 A2972 RMK A01 T01640037  RH  042%=      5-min Rain = 0
KGO1 090121Z 25021G26KT 16/04 A2972 RMK A01 T01640038  RH  043%=      5-min Rain = 0
KGO1 090122Z 25020KT 16/04 A2972 RMK A01 T01630038  RH  043%=      5-min Rain = 0
KGO1 090123Z 26021KT 16/04 A2972 RMK A01 T01630038  RH  043%=      5-min Rain = 0
KGO1 090124Z 25022KT 16/04 A2973 RMK A01 T01630038  RH  044%=      5-min Rain = 0
KGO1 090125Z 25019KT 16/04 A2973 RMK A01 T01620038  RH  044%=      5-min Rain = 0
KGO1 090126Z 25018KT 16/04 A2973 RMK A01 T01620038  RH  044%=      5-min Rain = 0
KGO1 090127Z 25022G27KT 16/04 A2973 RMK A01 T01610039  RH  044%=      5-min Rain = 0
KGO1 090128Z 25018KT 16/04 A2973 RMK A01 T01610039  RH  044%=      5-min Rain = 0
KGO1 090129Z 25018G24KT 16/04 A2973 RMK A01 T01610039  RH  044%=      5-min Rain = 0
KGO1 090130Z 25020KT 16/04 A2973 RMK A01 T01590039  RH  044%=      5-min Rain = 0
KGO1 090131Z 25019KT 16/04 A2973 RMK A01 T01590039  RH  045%=      5-min Rain = 0
KGO1 090132Z 25022KT 16/04 A2973 RMK A01 T01590039  RH  045%=      5-min Rain = 0
KGO1 090133Z 25021KT 16/04 A2973 RMK A01 T01600039  RH  045%=      5-min Rain = 0
KGO1 090134Z 25019G24KT 16/04 A2973 RMK A01 T01600039  RH  044%=      5-min Rain = 0
KGO1 090135Z 25020G25KT 16/04 A2973 RMK A01 T01600039  RH  044%=      5-min Rain = 0
KGO1 090136Z 25019KT 16/04 A2973 RMK A01 T01590039  RH  045%=      5-min Rain = 0
KGO1 090137Z 25019KT 16/04 A2972 RMK A01 T01590039  RH  045%=      5-min Rain = 0
KGO1 090138Z 25019G26KT 16/04 A2972 RMK A01 T01590039  RH  045%=      5-min Rain = 0
KGO1 090139Z 26023KT 16/04 A2972 RMK A01 T01580038  RH  045%=      5-min Rain = 0
KGO1 090140Z 25021G27KT 16/04 A2972 RMK A01 T01590038  RH  044%=      5-min Rain = 0
KGO1 090141Z 25023G28KT 16/04 A2972 RMK A01 T01590038  RH  044%=      5-min Rain = 0
KGO1 090142Z 25027G34KT 16/04 A2972 RMK A01 T01590038  RH  044%=      5-min Rain = 0
KGO1 090143Z 25025G30KT 16/04 A2972 RMK A01 T01600038  RH  044%=      5-min Rain = 0
KGO1 090144Z 25026G31KT 16/04 A2972 RMK A01 T01600038  RH  044%=      5-min Rain = 0
KGO1 090145Z 25026G31KT 16/04 A2971 RMK A01 T01610038  RH  044%=      5-min Rain = 0
KGO1 090146Z 25026KT 16/04 A2971 RMK A01 T01610038  RH  044%=      5-min Rain = 0
KGO1 090147Z 25022G27KT 16/04 A2972 RMK A01 T01610038  RH  044%=      5-min Rain = 0
KGO1 090148Z 25024KT 16/04 A2972 RMK A01 T01600037  RH  044%=      5-min Rain = 0
KGO1 090149Z 25021KT 16/04 A2972 RMK A01 T01590038  RH  044%=      5-min Rain = 0
KGO1 090150Z 25020KT 16/04 A2972 RMK A01 T01580038  RH  045%=      5-min Rain = 0
KGO1 090151Z 25021KT 16/04 A2972 RMK A01 T01570038  RH  045%=      5-min Rain = 0
KGO1 090152Z 25020KT 16/04 A2972 RMK A01 T01570038  RH  045%=      5-min Rain = 0
KGO1 090153Z 25021KT 16/04 A2972 RMK A01 T01560038  RH  045%=      5-min Rain = 0
KGO1 090154Z 25021KT 16/04 A2972 RMK A01 T01560038  RH  045%=      5-min Rain = 0
KGO1 090155Z 25019KT 16/04 A2972 RMK A01 T01560039  RH  046%=      5-min Rain = 0
KGO1 090156Z 25021KT 16/04 A2972 RMK A01 T01550038  RH  046%=      5-min Rain = 0
KGO1 090157Z 25018KT 15/04 A2972 RMK A01 T01540039  RH  046%=      5-min Rain = 0
KGO1 090158Z 25021G26KT 15/04 A2972 RMK A01 T01540039  RH  046%=      5-min Rain = 0
KGO1 090159Z 25021KT 15/04 A2972 RMK A01 T01540039  RH  046%=      5-min Rain = 0
KGO1 090200Z 25024G29KT 16/04 A2972 RMK A01 T01550039  RH  046%=      5-min Rain = 0
KGO1 090201Z 25023KT 16/04 A2972 RMK A01 T01550039  RH  046%=      5-min Rain = 0
KGO1 090202Z 25022KT 16/04 A2972 RMK A01 T01550039  RH  046%=      5-min Rain = 0
KGO1 090203Z 25025KT 16/04 A2972 RMK A01 T01550038  RH  046%=      5-min Rain = 0
KGO1 090204Z 25021KT 16/04 A2972 RMK A01 T01560038  RH  046%=      5-min Rain = 0
KGO1 090205Z 25020KT 16/04 A2972 RMK A01 T01550038  RH  046%=      5-min Rain = 0
KGO1 090206Z 26020KT 15/04 A2972 RMK A01 T01540038  RH  046%=      5-min Rain = 0
KGO1 090207Z 25023KT 15/04 A2972 RMK A01 T01530038  RH  046%=      5-min Rain = 0
KGO1 090208Z 26022KT 15/04 A2972 RMK A01 T01530037  RH  046%=      5-min Rain = 0
KGO1 090209Z 25023G28KT 15/04 A2972 RMK A01 T01540038  RH  046%=      5-min Rain = 0
KGO1 090210Z 25020KT 15/04 A2972 RMK A01 T01530038  RH  046%=      5-min Rain = 0
KGO1 090211Z 25021G26KT 15/04 A2972 RMK A01 T01520038  RH  046%=      5-min Rain = 0
KGO1 090212Z 25025KT 15/04 A2972 RMK A01 T01510038  RH  047%=      5-min Rain = 0
KGO1 090213Z 25022KT 15/04 A2972 RMK A01 T01520038  RH  046%=      5-min Rain = 0
KGO1 090214Z 25021KT 15/04 A2972 RMK A01 T01530038  RH  046%=      5-min Rain = 0
KGO1 090215Z 26020KT 15/04 A2972 RMK A01 T01520038  RH  047%=      5-min Rain = 0
KGO1 090216Z 25022KT 15/04 A2972 RMK A01 T01510038  RH  047%=      5-min Rain = 0
KGO1 090217Z 25019KT 15/04 A2972 RMK A01 T01500038  RH  047%=      5-min Rain = 0
KGO1 090218Z 25020KT 15/04 A2972 RMK A01 T01500038  RH  047%=      5-min Rain = 0
KGO1 090219Z 25021KT 15/04 A2972 RMK A01 T01490038  RH  047%=      5-min Rain = 0
KGO1 090220Z 25024G29KT 15/04 A2972 RMK A01 T01490038  RH  047%=      5-min Rain = 0
KGO1 090221Z 25023KT 15/04 A2972 RMK A01 T01490038  RH  047%=      5-min Rain = 0
KGO1 090222Z 25022KT 15/04 A2972 RMK A01 T01500038  RH  047%=      5-min Rain = 0
KGO1 090223Z 25021G26KT 15/04 A2972 RMK A01 T01500038  RH  047%=      5-min Rain = 0
KGO1 090224Z 25023KT 15/04 A2972 RMK A01 T01490038  RH  047%=      5-min Rain = 0
KGO1 090225Z 25023KT 15/04 A2972 RMK A01 T01480037  RH  047%=      5-min Rain = 0
KGO1 090226Z 25023G29KT 15/04 A2972 RMK A01 T01490037  RH  047%=      5-min Rain = 0
KGO1 090227Z 25022KT 15/04 A2972 RMK A01 T01480037  RH  047%=      5-min Rain = 0
KGO1 090228Z 25022KT 15/04 A2972 RMK A01 T01480036  RH  047%=      5-min Rain = 0
KGO1 090229Z 25023KT 15/04 A2972 RMK A01 T01470036  RH  047%=      5-min Rain = 0
KGO1 090230Z 25023KT 15/04 A2971 RMK A01 T01470036  RH  047%=      5-min Rain = 0
KGO1 090231Z 25022KT 15/04 A2971 RMK A01 T01470035  RH  047%=      5-min Rain = 0
KGO1 090232Z 25023KT 15/04 A2971 RMK A01 T01470035  RH  047%=      5-min Rain = 0
KGO1 090233Z 25020G26KT 15/04 A2971 RMK A01 T01470035  RH  047%=      5-min Rain = 0
KGO1 090234Z 25020KT 15/04 A2971 RMK A01 T01460035  RH  047%=      5-min Rain = 0
KGO1 090235Z 25021KT 14/03 A2971 RMK A01 T01440034  RH  048%=      5-min Rain = 0
KGO1 090236Z 25021KT 14/03 A2971 RMK A01 T01440034  RH  047%=      5-min Rain = 0
KGO1 090237Z 25023KT 15/03 A2971 RMK A01 T01450034  RH  047%=      5-min Rain = 0
KGO1 090238Z 25022KT 14/03 A2971 RMK A01 T01440034  RH  047%=      5-min Rain = 0
KGO1 090239Z 25023KT 14/03 A2971 RMK A01 T01440033  RH  047%=      5-min Rain = 0
KGO1 090240Z 25021KT 14/03 A2972 RMK A01 T01440033  RH  047%=      5-min Rain = 0
KGO1 090241Z 25022KT 14/03 A2972 RMK A01 T01440032  RH  047%=      5-min Rain = 0
KGO1 090242Z 25020KT 14/03 A2972 RMK A01 T01440032  RH  047%=      5-min Rain = 0
KGO1 090243Z 25020KT 14/03 A2972 RMK A01 T01430032  RH  047%=      5-min Rain = 0
KGO1 090244Z 25020KT 14/03 A2972 RMK A01 T01420032  RH  047%=      5-min Rain = 0
KGO1 090245Z 25020KT 14/03 A2972 RMK A01 T01420032  RH  047%=      5-min Rain = 0
KGO1 090246Z 25024G29KT 14/03 A2971 RMK A01 T01410031  RH  047%=      5-min Rain = 0
KGO1 090247Z 25022KT 14/03 A2971 RMK A01 T01420030  RH  047%=      5-min Rain = 0
KGO1 090248Z 25021KT 14/03 A2972 RMK A01 T01420030  RH  047%=      5-min Rain = 0
KGO1 090249Z 25021KT 14/03 A2972 RMK A01 T01420030  RH  047%=      5-min Rain = 0
KGO1 090250Z 25022KT 14/03 A2972 RMK A01 T01420030  RH  047%=      5-min Rain = 0
KGO1 090251Z 25019KT 14/03 A2972 RMK A01 T01420030  RH  047%=      5-min Rain = 0
KGO1 090252Z 25020KT 14/03 A2972 RMK A01 T01410030  RH  047%=      5-min Rain = 0
KGO1 090253Z 25019KT 14/03 A2972 RMK A01 T01400029  RH  047%=      5-min Rain = 0
KGO1 090254Z 25021KT 14/03 A2972 RMK A01 T01400029  RH  047%=      5-min Rain = 0
KGO1 090255Z 25019KT 14/03 A2972 RMK A01 T01400029  RH  047%=      5-min Rain = 0
KGO1 090256Z 25019G25KT 14/03 A2972 RMK A01 T01390029  RH  047%=      5-min Rain = 0
KGO1 090257Z 25018KT 14/03 A2972 RMK A01 T01390029  RH  047%=      5-min Rain = 0
KGO1 090258Z 25018KT 14/03 A2972 RMK A01 T01390029  RH  047%=      5-min Rain = 0
KGO1 090259Z 25020KT 14/03 A2972 RMK A01 T01390028  RH  047%=      5-min Rain = 0
KGO1 090300Z 25017KT 14/03 A2972 RMK A01 T01390028  RH  047%=      5-min Rain = 0
KGO1 090301Z 26018KT 14/03 A2972 RMK A01 T01380028  RH  047%=      5-min Rain = 0
KGO1 090302Z 25020G25KT 14/03 A2972 RMK A01 T01380028  RH  047%=      5-min Rain = 0
KGO1 090303Z 25020KT 14/03 A2972 RMK A01 T01380028  RH  047%=      5-min Rain = 0
KGO1 090304Z 26022KT 14/03 A2972 RMK A01 T01380028  RH  047%=      5-min Rain = 0
KGO1 090305Z 26021KT 14/03 A2972 RMK A01 T01380027  RH  047%=      5-min Rain = 0
KGO1 090306Z 26023KT 14/03 A2972 RMK A01 T01390027  RH  047%=      5-min Rain = 0
KGO1 090307Z 26021KT 14/03 A2972 RMK A01 T01400027  RH  047%=      5-min Rain = 0
KGO1 090308Z 26022KT 14/03 A2972 RMK A01 T01390027  RH  046%=      5-min Rain = 0
KGO1 090309Z 25021G26KT 14/03 A2972 RMK A01 T01390027  RH  047%=      5-min Rain = 0
KGO1 090310Z 26021KT 14/03 A2972 RMK A01 T01390027  RH  047%=      5-min Rain = 0
KGO1 090311Z 25022KT 14/03 A2972 RMK A01 T01380026  RH  047%=      5-min Rain = 0
KGO1 090312Z 26021KT 14/03 A2972 RMK A01 T01380027  RH  047%=      5-min Rain = 0
KGO1 090313Z 26022G28KT 14/03 A2972 RMK A01 T01370026  RH  047%=      5-min Rain = 0
KGO1 090314Z 26024KT 14/03 A2972 RMK A01 T01370026  RH  047%=      5-min Rain = 0
KGO1 090315Z 25018KT 14/03 A2972 RMK A01 T01370026  RH  047%=      5-min Rain = 0
KGO1 090316Z 25019KT 14/03 A2972 RMK A01 T01360026  RH  047%=      5-min Rain = 0
KGO1 090317Z 25019KT 14/03 A2972 RMK A01 T01360026  RH  048%=      5-min Rain = 0
KGO1 090318Z 25019KT 14/03 A2972 RMK A01 T01350026  RH  048%=      5-min Rain = 0
KGO1 090319Z 26019KT 13/03 A2972 RMK A01 T01340026  RH  048%=      5-min Rain = 0
KGO1 090320Z 26019KT 13/03 A2972 RMK A01 T01340026  RH  048%=      5-min Rain = 0
KGO1 090321Z 26021KT 13/03 A2972 RMK A01 T01340026  RH  048%=      5-min Rain = 0
KGO1 090322Z 26022KT 13/03 A2972 RMK A01 T01340026  RH  048%=      5-min Rain = 0
KGO1 090323Z 26020KT 13/03 A2972 RMK A01 T01340026  RH  048%=      5-min Rain = 0
KGO1 090324Z 26020KT 13/03 A2972 RMK A01 T01340026  RH  048%=      5-min Rain = 0
KGO1 090325Z 26021KT 13/03 A2972 RMK A01 T01330026  RH  048%=      5-min Rain = 0
KGO1 090326Z 26021KT 13/03 A2972 RMK A01 T01320026  RH  048%=      5-min Rain = 0
KGO1 090327Z 27021G26KT 13/03 A2972 RMK A01 T01320026  RH  048%=      5-min Rain = 0
KGO1 090328Z 26021KT 13/03 A2972 RMK A01 T01330026  RH  048%=      5-min Rain = 0
KGO1 090329Z 26017KT 13/03 A2972 RMK A01 T01320026  RH  048%=      5-min Rain = 0
KGO1 090330Z 26022G29KT 13/03 A2972 RMK A01 T01310027  RH  049%=      5-min Rain = 0
KGO1 090331Z 26021KT 13/03 A2972 RMK A01 T01320027  RH  049%=      5-min Rain = 0
KGO1 090332Z 26022KT 13/03 A2972 RMK A01 T01320027  RH  049%=      5-min Rain = 0
KGO1 090333Z 26021KT 13/03 A2972 RMK A01 T01320027  RH  049%=      5-min Rain = 0
KGO1 090334Z 26022G27KT 13/03 A2972 RMK A01 T01310027  RH  049%=      5-min Rain = 0
KGO1 090335Z 26021KT 13/03 A2972 RMK A01 T01320027  RH  049%=      5-min Rain = 0
KGO1 090336Z 26022KT 13/03 A2972 RMK A01 T01310027  RH  049%=      5-min Rain = 0
KGO1 090337Z 26024KT 13/03 A2972 RMK A01 T01310027  RH  049%=      5-min Rain = 0
KGO1 090338Z 26020KT 13/03 A2972 RMK A01 T01320027  RH  049%=      5-min Rain = 0
KGO1 090339Z 26018KT 13/03 A2972 RMK A01 T01310027  RH  049%=      5-min Rain = 0
KGO1 090340Z 26018KT 13/03 A2972 RMK A01 T01290027  RH  050%=      5-min Rain = 0
KGO1 090341Z 26022G27KT 13/03 A2972 RMK A01 T01280027  RH  050%=      5-min Rain = 0
KGO1 090342Z 26022KT 13/03 A2971 RMK A01 T01300027  RH  050%=      5-min Rain = 0
KGO1 090343Z 26017KT 13/03 A2971 RMK A01 T01300027  RH  050%=      5-min Rain = 0
KGO1 090344Z 26019KT 13/03 A2972 RMK A01 T01290027  RH  050%=      5-min Rain = 0
KGO1 090345Z 26019KT 13/03 A2971 RMK A01 T01280027  RH  050%=      5-min Rain = 0
KGO1 090346Z 26020KT 13/03 A2972 RMK A01 T01280027  RH  050%=      5-min Rain = 0
KGO1 090347Z 26023KT 13/03 A2972 RMK A01 T01280027  RH  050%=      5-min Rain = 0
KGO1 090348Z 26021KT 13/03 A2972 RMK A01 T01280027  RH  050%=      5-min Rain = 0
KGO1 090349Z 26021G26KT 13/03 A2972 RMK A01 T01290027  RH  050%=      5-min Rain = 0
KGO1 090350Z 26020KT 13/03 A2972 RMK A01 T01280027  RH  050%=      5-min Rain = 0
KGO1 090351Z 26022KT 13/03 A2972 RMK A01 T01280027  RH  050%=      5-min Rain = 0
KGO1 090352Z 26021KT 13/03 A2972 RMK A01 T01280028  RH  051%=      5-min Rain = 0
KGO1 090353Z 26022KT 13/03 A2972 RMK A01 T01280028  RH  050%=      5-min Rain = 0
KGO1 090354Z 26023KT 13/03 A2972 RMK A01 T01280028  RH  050%=      5-min Rain = 0
KGO1 090355Z 26022KT 13/03 A2972 RMK A01 T01280028  RH  050%=      5-min Rain = 0
KGO1 090356Z 27022KT 13/03 A2972 RMK A01 T01280028  RH  051%=      5-min Rain = 0
KGO1 090357Z 27022KT 13/03 A2972 RMK A01 T01270028  RH  051%=      5-min Rain = 0
KGO1 090358Z 27022KT 13/03 A2972 RMK A01 T01270028  RH  051%=      5-min Rain = 0
KGO1 090359Z 26020KT 13/03 A2972 RMK A01 T01280028  RH  051%=      5-min Rain = 0
KGO1 090400Z 26021G28KT 13/03 A2972 RMK A01 T01270028  RH  051%=      5-min Rain = 0
KGO1 090401Z 26023G30KT 13/03 A2971 RMK A01 T01270028  RH  051%=      5-min Rain = 0
KGO1 090402Z 27023G29KT 13/03 A2971 RMK A01 T01280028  RH  051%=      5-min Rain = 0
KGO1 090403Z 26022KT 13/03 A2972 RMK A01 T01280028  RH  050%=      5-min Rain = 0
KGO1 090404Z 26023KT 13/03 A2972 RMK A01 T01280028  RH  051%=      5-min Rain = 0
KGO1 090405Z 27020KT 13/03 A2971 RMK A01 T01280028  RH  051%=      5-min Rain = 0
KGO1 090406Z 26023KT 13/03 A2971 RMK A01 T01260028  RH  051%=      5-min Rain = 0
KGO1 090407Z 26022G28KT 13/03 A2971 RMK A01 T01270028  RH  051%=      5-min Rain = 0
KGO1 090408Z 26022KT 13/03 A2971 RMK A01 T01270028  RH  051%=      5-min Rain = 0
KGO1 090409Z 26024G29KT 13/03 A2971 RMK A01 T01260028  RH  051%=      5-min Rain = 0
KGO1 090410Z 26023KT 13/03 A2971 RMK A01 T01270028  RH  051%=      5-min Rain = 0
KGO1 090411Z 26023G29KT 13/03 A2971 RMK A01 T01270028  RH  051%=      5-min Rain = 0
KGO1 090412Z 26024KT 13/03 A2971 RMK A01 T01270028  RH  051%=      5-min Rain = 0
KGO1 090413Z 25025KT 13/03 A2971 RMK A01 T01270028  RH  051%=      5-min Rain = 0
KGO1 090414Z 26025G30KT 13/03 A2971 RMK A01 T01270028  RH  051%=      5-min Rain = 0
KGO1 090415Z 26024KT 13/03 A2971 RMK A01 T01280028  RH  051%=      5-min Rain = 0
KGO1 090416Z 26024KT 13/03 A2971 RMK A01 T01280028  RH  051%=      5-min Rain = 0
KGO1 090417Z 26021G26KT 13/03 A2971 RMK A01 T01280028  RH  051%=      5-min Rain = 0
KGO1 090418Z 26023G28KT 13/03 A2972 RMK A01 T01260028  RH  051%=      5-min Rain = 0
KGO1 090419Z 26020KT 13/03 A2971 RMK A01 T01260028  RH  051%=      5-min Rain = 0
KGO1 090420Z 26021KT 13/03 A2971 RMK A01 T01250028  RH  052%=      5-min Rain = 0
KGO1 090421Z 26023KT 13/03 A2971 RMK A01 T01250028  RH  052%=      5-min Rain = 0
KGO1 090422Z 26022G27KT 13/03 A2971 RMK A01 T01250028  RH  052%=      5-min Rain = 0
KGO1 090423Z 26022KT 13/03 A2971 RMK A01 T01250028  RH  052%=      5-min Rain = 0
KGO1 090424Z 26023G29KT 13/03 A2971 RMK A01 T01250028  RH  052%=      5-min Rain = 0
KGO1 090425Z 26023G29KT 13/03 A2971 RMK A01 T01250029  RH  052%=      5-min Rain = 0
KGO1 090426Z 26024KT 13/03 A2971 RMK A01 T01250029  RH  052%=      5-min Rain = 0
KGO1 090427Z 26026KT 13/03 A2971 RMK A01 T01250028  RH  052%=      5-min Rain = 0
KGO1 090428Z 26025KT 13/03 A2971 RMK A01 T01260029  RH  051%=      5-min Rain = 0
KGO1 090429Z 26025G30KT 13/03 A2971 RMK A01 T01270029  RH  051%=      5-min Rain = 0
KGO1 090430Z 26022KT 13/03 A2971 RMK A01 T01270029  RH  051%=      5-min Rain = 0
KGO1 090431Z 26023KT 13/03 A2971 RMK A01 T01270029  RH  051%=      5-min Rain = 0
KGO1 090432Z 26024KT 13/03 A2971 RMK A01 T01270029  RH  051%=      5-min Rain = 0
KGO1 090433Z 26023KT 13/03 A2971 RMK A01 T01260029  RH  051%=      5-min Rain = 0
KGO1 090434Z 26021KT 13/03 A2972 RMK A01 T01260029  RH  052%=      5-min Rain = 0
KGO1 090435Z 26023KT 13/03 A2972 RMK A01 T01250029  RH  052%=      5-min Rain = 0
KGO1 090436Z 26025KT 13/03 A2971 RMK A01 T01250029  RH  052%=      5-min Rain = 0
KGO1 090437Z 26025KT 13/03 A2971 RMK A01 T01250029  RH  052%=      5-min Rain = 0
KGO1 090438Z 26024KT 13/03 A2971 RMK A01 T01260029  RH  052%=      5-min Rain = 0
KGO1 090439Z 26023KT 13/03 A2971 RMK A01 T01260029  RH  052%=      5-min Rain = 0
KGO1 090440Z 26023G28KT 13/03 A2971 RMK A01 T01250029  RH  052%=      5-min Rain = 0
KGO1 090441Z 26024KT 13/03 A2971 RMK A01 T01250029  RH  052%=      5-min Rain = 0
KGO1 090442Z 26024KT 13/03 A2971 RMK A01 T01250029  RH  052%=      5-min Rain = 0
KGO1 090443Z 26021KT 13/03 A2971 RMK A01 T01250029  RH  052%=      5-min Rain = 0
KGO1 090444Z 26021KT 12/03 A2971 RMK A01 T01240029  RH  052%=      5-min Rain = 0
KGO1 090445Z 26022G27KT 12/03 A2971 RMK A01 T01230029  RH  052%=      5-min Rain = 0
KGO1 090446Z 26023G28KT 12/03 A2971 RMK A01 T01230029  RH  053%=      5-min Rain = 0
KGO1 090447Z 26022KT 12/03 A2971 RMK A01 T01230029  RH  053%=      5-min Rain = 0
KGO1 090448Z 26025G32KT 12/03 A2971 RMK A01 T01240029  RH  052%=      5-min Rain = 0
KGO1 090449Z 26023KT 12/03 A2971 RMK A01 T01240029  RH  052%=      5-min Rain = 0
KGO1 090450Z 26024KT 12/03 A2971 RMK A01 T01240029  RH  052%=      5-min Rain = 0
KGO1 090451Z 26023KT 12/03 A2971 RMK A01 T01240029  RH  052%=      5-min Rain = 0
KGO1 090452Z 26021KT 12/03 A2972 RMK A01 T01240029  RH  052%=      5-min Rain = 0
KGO1 090453Z 26022KT 12/03 A2972 RMK A01 T01220029  RH  053%=      5-min Rain = 0
KGO1 090454Z 26025G30KT 12/03 A2971 RMK A01 T01220029  RH  053%=      5-min Rain = 0
KGO1 090455Z 26022KT 12/03 A2971 RMK A01 T01220029  RH  053%=      5-min Rain = 0
KGO1 090456Z 26022G27KT 12/03 A2971 RMK A01 T01220029  RH  053%=      5-min Rain = 0
KGO1 090457Z 26022KT 12/03 A2971 RMK A01 T01220029  RH  053%=      5-min Rain = 0
KGO1 090458Z 26023G28KT 12/03 A2971 RMK A01 T01210029  RH  053%=      5-min Rain = 0
KGO1 090459Z 26021G27KT 12/03 A2971 RMK A01 T01210029  RH  053%=      5-min Rain = 0
KGO1 090500Z 26022KT 12/03 A2971 RMK A01 T01220029  RH  053%=      5-min Rain = 0
KGO1 090501Z 26023KT 12/03 A2971 RMK A01 T01220029  RH  053%=      5-min Rain = 0
KGO1 090502Z 26024G29KT 12/03 A2971 RMK A01 T01220029  RH  053%=      5-min Rain = 0
KGO1 090503Z 26024G30KT 12/03 A2971 RMK A01 T01220029  RH  053%=      5-min Rain = 0
KGO1 090504Z 26024KT 12/03 A2971 RMK A01 T01220029  RH  053%=      5-min Rain = 0
KGO1 090505Z 26024KT 12/03 A2972 RMK A01 T01220029  RH  053%=      5-min Rain = 0
KGO1 090506Z 26023G28KT 12/03 A2972 RMK A01 T01220029  RH  053%=      5-min Rain = 0
KGO1 090507Z 26025KT 12/03 A2972 RMK A01 T01220030  RH  053%=      5-min Rain = 0
KGO1 090508Z 26026KT 12/03 A2972 RMK A01 T01220029  RH  053%=      5-min Rain = 0
KGO1 090509Z 26025KT 12/03 A2972 RMK A01 T01220029  RH  053%=      5-min Rain = 0
KGO1 090510Z 26027KT 12/03 A2972 RMK A01 T01230030  RH  053%=      5-min Rain = 0
KGO1 090511Z 26022KT 12/03 A2972 RMK A01 T01230029  RH  053%=      5-min Rain = 0
KGO1 090512Z 26025G31KT 12/03 A2972 RMK A01 T01220029  RH  053%=      5-min Rain = 0
KGO1 090513Z 26022G27KT 12/03 A2972 RMK A01 T01220029  RH  053%=      5-min Rain = 0
KGO1 090514Z 27022KT 12/03 A2972 RMK A01 T01220029  RH  053%=      5-min Rain = 0
KGO1 090515Z 26021KT 12/03 A2972 RMK A01 T01210030  RH  053%=      5-min Rain = 0
KGO1 090516Z 26025G30KT 12/03 A2972 RMK A01 T01210030  RH  054%=      5-min Rain = 0
KGO1 090517Z 27021KT 12/03 A2972 RMK A01 T01210030  RH  054%=      5-min Rain = 0
KGO1 090518Z 27020KT 12/03 A2972 RMK A01 T01210030  RH  054%=      5-min Rain = 0
KGO1 090519Z 26019G27KT 12/03 A2972 RMK A01 T01210030  RH  054%=      5-min Rain = 0
KGO1 090520Z 27019G24KT 12/03 A2972 RMK A01 T01200030  RH  054%=      5-min Rain = 0
KGO1 090521Z 26021KT 12/03 A2972 RMK A01 T01200030  RH  054%=      5-min Rain = 0
KGO1 090522Z 26022KT 12/03 A2972 RMK A01 T01200031  RH  054%=      5-min Rain = 0
KGO1 090523Z 27020KT 12/03 A2972 RMK A01 T01210031  RH  054%=      5-min Rain = 0
KGO1 090524Z 27018KT 12/03 A2972 RMK A01 T01210031  RH  054%=      5-min Rain = 0
KGO1 090525Z 27019KT 12/03 A2972 RMK A01 T01200031  RH  054%=      5-min Rain = 0
KGO1 090526Z 27020G25KT 12/03 A2972 RMK A01 T01200031  RH  054%=      5-min Rain = 0
KGO1 090527Z 27020KT 12/03 A2972 RMK A01 T01200031  RH  054%=      5-min Rain = 0
KGO1 090528Z 27018KT 12/03 A2972 RMK A01 T01210031  RH  054%=      5-min Rain = 0
KGO1 090529Z 27020KT 12/03 A2972 RMK A01 T01210032  RH  054%=      5-min Rain = 0
KGO1 090530Z 27021KT 12/03 A2972 RMK A01 T01210032  RH  054%=      5-min Rain = 0
KGO1 090531Z 27022G27KT 12/03 A2972 RMK A01 T01210031  RH  054%=      5-min Rain = 0
KGO1 090532Z 26021G26KT 12/03 A2972 RMK A01 T01220032  RH  054%=      5-min Rain = 0
KGO1 090533Z 27024KT 12/03 A2972 RMK A01 T01220032  RH  054%=      5-min Rain = 0
KGO1 090534Z 26022KT 12/03 A2972 RMK A01 T01230032  RH  054%=      5-min Rain = 0
KGO1 090535Z 26023KT 12/03 A2972 RMK A01 T01240033  RH  054%=      5-min Rain = 0
KGO1 090536Z 26021KT 12/03 A2972 RMK A01 T01230032  RH  054%=      5-min Rain = 0
KGO1 090537Z 26023G28KT 12/03 A2972 RMK A01 T01230033  RH  054%=      5-min Rain = 0
KGO1 090538Z 26023G28KT 12/03 A2972 RMK A01 T01230032  RH  054%=      5-min Rain = 0
KGO1 090539Z 26024KT 12/03 A2972 RMK A01 T01240033  RH  054%=      5-min Rain = 0
KGO1 090540Z 26023G29KT 12/03 A2972 RMK A01 T01240032  RH  054%=      5-min Rain = 0
KGO1 090541Z 26024G31KT 12/03 A2972 RMK A01 T01240033  RH  054%=      5-min Rain = 0
KGO1 090542Z 26023KT 12/03 A2972 RMK A01 T01240033  RH  054%=      5-min Rain = 0
KGO1 090543Z 26023KT 12/03 A2971 RMK A01 T01240033  RH  054%=      5-min Rain = 0
KGO1 090544Z 26024KT 12/03 A2971 RMK A01 T01240033  RH  054%=      5-min Rain = 0
KGO1 090545Z 26022KT 12/03 A2972 RMK A01 T01230033  RH  054%=      5-min Rain = 0
KGO1 090546Z 26025KT 12/03 A2972 RMK A01 T01230033  RH  054%=      5-min Rain = 0
KGO1 090547Z 26027KT 12/03 A2971 RMK A01 T01240034  RH  054%=      5-min Rain = 0
KGO1 090548Z 26024KT 13/03 A2972 RMK A01 T01250034  RH  054%=      5-min Rain = 0
KGO1 090549Z 26024KT 13/03 A2972 RMK A01 T01250034  RH  054%=      5-min Rain = 0
KGO1 090550Z 26023KT 12/03 A2972 RMK A01 T01240033  RH  054%=      5-min Rain = 0
KGO1 090551Z 26022G27KT 12/03 A2972 RMK A01 T01240034  RH  054%=      5-min Rain = 0
KGO1 090552Z 26022KT 12/03 A2972 RMK A01 T01240034  RH  054%=      5-min Rain = 0
KGO1 090553Z 26024KT 12/03 A2972 RMK A01 T01230034  RH  054%=      5-min Rain = 0
KGO1 090554Z 26024KT 12/03 A2972 RMK A01 T01240034  RH  054%=      5-min Rain = 0
KGO1 090555Z 26023KT 13/03 A2972 RMK A01 T01250034  RH  054%=      5-min Rain = 0
KGO1 090556Z 26022G28KT 13/03 A2972 RMK A01 T01250034  RH  054%=      5-min Rain = 0
KGO1 090557Z 26022KT 13/03 A2972 RMK A01 T01250034  RH  054%=      5-min Rain = 0
KGO1 090558Z 26022KT 13/03 A2972 RMK A01 T01250034  RH  054%=      5-min Rain = 0
KGO1 090559Z 26025G30KT 13/03 A2972 RMK A01 T01250034  RH  054%=      5-min Rain = 0

Page generated in 0.0696 seconds.